Wetterdaten: Montag, 21.12.2020
Datum Zeit Temp. Aussen Temp. o. S. Temp +5cm Feuchte Auss Luftdruck Regen Sonnenschein Regendauer Solar Windben Empfang
21.12.2020 00:00 6,9 C 5,6 C 3,8 C 93 % 1020,9 hPa 0,0 l/m 0 min 0 min 0 W/m 0,0 km/h (0 Bft) 100,00 %
21.12.2020 00:02 6,9 C 5,6 C 3,8 C 93 % 1020,9 hPa 0,0 l/m 0 min 0 min 0 W/m 0,0 km/h (0 Bft) 95,24 %
21.12.2020 00:04 6,8 C 5,6 C 3,8 C 93 % 1020,8 hPa 0,0 l/m 0 min 0 min 0 W/m 0,0 km/h (0 Bft) 100,00 %
21.12.2020 00:08 6,8 C 5,6 C 3,8 C 93 % 1020,9 hPa 0,0 l/m 0 min 0 min 0 W/m 3,2 km/h (1 Bft) 98,92 %
21.12.2020 00:10 6,8 C 5,6 C 3,8 C 93 % 1020,9 hPa 0,0 l/m 0 min 0 min 0 W/m 0,0 km/h (0 Bft) 100,00 %
21.12.2020 00:12 6,8 C 5,6 C 3,8 C 93 % 1020,9 hPa 0,0 l/m 0 min 0 min 0 W/m 0,0 km/h (0 Bft) 100,00 %
21.12.2020 00:14 6,8 C 5,6 C 3,8 C 93 % 1020,9 hPa 0,0 l/m 0 min 0 min 0 W/m 0,0 km/h (0 Bft) 100,00 %
21.12.2020 00:16 6,8 C 5,6 C 3,8 C 93 % 1020,9 hPa 0,0 l/m 0 min 0 min 0 W/m 0,0 km/h (0 Bft) 100,00 %
21.12.2020 00:18 6,8 C 5,6 C 3,8 C 93 % 1020,9 hPa 0,0 l/m 0 min 0 min 0 W/m 0,0 km/h (0 Bft) 100,00 %
21.12.2020 00:20 6,8 C 5,6 C 3,8 C 93 % 1020,9 hPa 0,0 l/m 0 min 0 min 0 W/m 0,0 km/h (0 Bft) 97,83 %
21.12.2020 00:22 6,7 C 5,6 C 3,8 C 93 % 1021,0 hPa 0,0 l/m 0 min 0 min 0 W/m 0,0 km/h (0 Bft) 100,00 %
21.12.2020 00:24 6,7 C 5,6 C 3,8 C 93 % 1021,0 hPa 0,0 l/m 0 min 0 min 0 W/m 0,0 km/h (0 Bft) 100,00 %
21.12.2020 00:26 6,7 C 5,6 C 3,8 C 93 % 1021,0 hPa 0,0 l/m 0 min 0 min 0 W/m 0,0 km/h (0 Bft) 100,00 %
21.12.2020 00:28 6,7 C 5,6 C 3,8 C 94 % 1021,0 hPa 0,0 l/m 0 min 0 min 0 W/m 0,0 km/h (0 Bft) 100,00 %
21.12.2020 00:30 6,6 C 5,6 C 3,8 C 94 % 1021,1 hPa 0,0 l/m 0 min 0 min 0 W/m 0,0 km/h (0 Bft) 97,87 %
21.12.2020 00:32 6,6 C 5,6 C 3,8 C 94 % 1021,0 hPa 0,0 l/m 0 min 0 min 0 W/m 0,0 km/h (0 Bft) 100,00 %
21.12.2020 00:34 6,6 C 5,6 C 3,8 C 94 % 1021,0 hPa 0,0 l/m 0 min 0 min 0 W/m 0,0 km/h (0 Bft) 100,00 %
21.12.2020 00:36 6,6 C 5,6 C 3,8 C 93 % 1021,0 hPa 0,0 l/m 0 min 0 min 0 W/m 0,0 km/h (0 Bft) 100,00 %
21.12.2020 00:38 6,6 C 5,6 C 3,8 C 93 % 1021,0 hPa 0,0 l/m 0 min 0 min 0 W/m 0,0 km/h (0 Bft) 97,87 %
21.12.2020 00:40 6,6 C 5,6 C 3,8 C 93 % 1021,0 hPa 0,0 l/m 0 min 0 min 0 W/m 0,0 km/h (0 Bft) 100,00 %
21.12.2020 00:42 6,6 C 5,6 C 3,8 C 93 % 1021,0 hPa 0,0 l/m 0 min 0 min 0 W/m 12,9 km/h (3 Bft) 100,00 %
21.12.2020 00:44 6,5 C 5,6 C 3,8 C 93 % 1021,0 hPa 0,0 l/m 0 min 0 min 0 W/m 0,0 km/h (0 Bft) 100,00 %
21.12.2020 00:46 6,5 C 5,6 C 3,8 C 93 % 1021,0 hPa 0,0 l/m 0 min 0 min 0 W/m 0,0 km/h (0 Bft) 100,00 %
21.12.2020 00:48 6,5 C 5,6 C 3,3 C 93 % 1021,0 hPa 0,0 l/m 0 min 0 min 0 W/m 0,0 km/h (0 Bft) 100,00 %
21.12.2020 00:50 6,5 C 5,6 C 3,3 C 93 % 1021,0 hPa 0,0 l/m 0 min 0 min 0 W/m 0,0 km/h (0 Bft) 100,00 %
21.12.2020 00:52 6,5 C 5,6 C 3,3 C 93 % 1021,1 hPa 0,0 l/m 0 min 0 min 0 W/m 0,0 km/h (0 Bft) 97,92 %
21.12.2020 00:54 6,5 C 5,6 C 3,3 C 93 % 1021,1 hPa 0,0 l/m 0 min 0 min 0 W/m 0,0 km/h (0 Bft) 100,00 %
21.12.2020 00:56 6,5 C 5,6 C 3,3 C 93 % 1021,1 hPa 0,0 l/m 0 min 0 min 0 W/m 0,0 km/h (0 Bft) 97,87 %
21.12.2020 00:58 6,4 C 5,6 C 3,3 C 94 % 1021,1 hPa 0,0 l/m 0 min 0 min 0 W/m 0,0 km/h (0 Bft) 97,83 %
21.12.2020 01:00 6,4 C 5,6 C 3,3 C 94 % 1021,0 hPa 0,0 l/m 0 min 0 min 0 W/m 0,0 km/h (0 Bft) 100,00 %
21.12.2020 01:02 6,4 C 5,6 C 3,3 C 94 % 1021,0 hPa 0,0 l/m 0 min 0 min 0 W/m 0,0 km/h (0 Bft) 100,00 %
21.12.2020 01:04 6,4 C 5,6 C 3,3 C 94 % 1021,0 hPa 0,0 l/m 0 min 0 min 0 W/m 0,0 km/h (0 Bft) 100,00 %
21.12.2020 01:06 6,4 C 5,6 C 3,3 C 94 % 1021,0 hPa 0,0 l/m 0 min 0 min 0 W/m 0,0 km/h (0 Bft) 100,00 %
21.12.2020 01:08 6,4 C 5,6 C 3,3 C 94 % 1021,0 hPa 0,0 l/m 0 min 0 min 0 W/m 6,4 km/h (2 Bft) 100,00 %
21.12.2020 01:10 6,4 C 5,6 C 3,3 C 94 % 1020,9 hPa 0,0 l/m 0 min 0 min 0 W/m 0,0 km/h (0 Bft) 100,00 %
21.12.2020 01:12 6,4 C 5,6 C 3,3 C 94 % 1020,9 hPa 0,0 l/m 0 min 0 min 0 W/m 0,0 km/h (0 Bft) 100,00 %
21.12.2020 01:14 6,4 C 5,6 C 3,3 C 94 % 1020,9 hPa 0,0 l/m 0 min 0 min 0 W/m 0,0 km/h (0 Bft) 97,87 %
21.12.2020 01:16 6,4 C 5,6 C 3,3 C 94 % 1020,9 hPa 0,0 l/m 0 min 0 min 0 W/m 0,0 km/h (0 Bft) 100,00 %
21.12.2020 01:18 6,4 C 5,6 C 3,3 C 94 % 1021,0 hPa 0,0 l/m 0 min 0 min 0 W/m 0,0 km/h (0 Bft) 100,00 %
21.12.2020 01:20 6,3 C 5,6 C 3,3 C 94 % 1021,0 hPa 0,0 l/m 0 min 0 min 0 W/m 0,0 km/h (0 Bft) 97,83 %
21.12.2020 01:22 6,3 C 5,6 C 3,3 C 94 % 1021,0 hPa 0,0 l/m 0 min 0 min 0 W/m 0,0 km/h (0 Bft) 100,00 %
21.12.2020 01:24 6,3 C 5,6 C 3,3 C 94 % 1020,9 hPa 0,0 l/m 0 min 0 min 0 W/m 0,0 km/h (0 Bft) 100,00 %
21.12.2020 01:26 6,3 C 5,6 C 3,3 C 94 % 1020,9 hPa 0,0 l/m 0 min 0 min 0 W/m 0,0 km/h (0 Bft) 91,49 %
21.12.2020 01:28 6,3 C 5,6 C 3,3 C 94 % 1020,9 hPa 0,0 l/m 0 min 0 min 0 W/m 0,0 km/h (0 Bft) 97,87 %
21.12.2020 01:30 6,3 C 5,6 C 3,3 C 94 % 1020,9 hPa 0,0 l/m 0 min 0 min 0 W/m 0,0 km/h (0 Bft) 97,87 %
21.12.2020 01:32 6,3 C 5,6 C 3,3 C 94 % 1020,9 hPa 0,0 l/m 0 min 0 min 0 W/m 0,0 km/h (0 Bft) 95,65 %
21.12.2020 01:34 6,3 C 5,6 C 3,3 C 94 % 1020,9 hPa 0,0 l/m 0 min 0 min 0 W/m 0,0 km/h (0 Bft) 97,87 %
21.12.2020 01:36 6,3 C 5,6 C 3,3 C 94 % 1020,9 hPa 0,0 l/m 0 min 0 min 0 W/m 0,0 km/h (0 Bft) 93,62 %
21.12.2020 01:38 6,3 C 5,6 C 3,3 C 94 % 1020,9 hPa 0,0 l/m 0 min 0 min 0 W/m 0,0 km/h (0 Bft) 97,87 %
21.12.2020 01:40 6,3 C 5,6 C 3,3 C 94 % 1020,9 hPa 0,0 l/m 0 min 0 min 0 W/m 0,0 km/h (0 Bft) 97,87 %
21.12.2020 01:42 6,3 C 5,6 C 3,3 C 94 % 1020,9 hPa 0,0 l/m 0 min 0 min 0 W/m 0,0 km/h (0 Bft) 95,65 %
21.12.2020 01:44 6,2 C 5,6 C 3,3 C 94 % 1020,8 hPa 0,0 l/m 0 min 0 min 0 W/m 12,9 km/h (3 Bft) 95,74 %
21.12.2020 01:46 6,2 C 5,6 C 3,3 C 94 % 1020,8 hPa 0,0 l/m 0 min 0 min 0 W/m 12,9 km/h (3 Bft) 93,62 %
21.12.2020 01:48 6,2 C 5,6 C 3,3 C 94 % 1020,9 hPa 0,0 l/m 0 min 0 min 0 W/m 12,9 km/h (3 Bft) 93,62 %
21.12.2020 01:50 6,2 C 5,6 C 3,3 C 94 % 1020,8 hPa 0,0 l/m 0 min 0 min 0 W/m 6,4 km/h (2 Bft) 95,74 %
21.12.2020 01:52 6,1 C 5,6 C 3,3 C 94 % 1020,8 hPa 0,0 l/m 0 min 0 min 0 W/m 0,0 km/h (0 Bft) 93,62 %
21.12.2020 01:54 6,1 C 5,6 C 3,3 C 94 % 1020,8 hPa 0,0 l/m 0 min 0 min 0 W/m 0,0 km/h (0 Bft) 97,83 %
21.12.2020 01:56 6,1 C 5,6 C 3,3 C 94 % 1020,7 hPa 0,0 l/m 0 min 0 min 0 W/m 0,0 km/h (0 Bft) 95,74 %
21.12.2020 01:58 6,1 C 5,6 C 3,3 C 94 % 1020,7 hPa 0,0 l/m 0 min 0 min 0 W/m 12,9 km/h (3 Bft) 93,62 %
21.12.2020 02:00 6,1 C 5,6 C 3,3 C 94 % 1020,8 hPa 0,0 l/m 0 min 0 min 0 W/m 0,0 km/h (0 Bft) 91,49 %
21.12.2020 02:02 6,1 C 5,6 C 3,3 C 94 % 1020,8 hPa 0,0 l/m 0 min 0 min 0 W/m 0,0 km/h (0 Bft) 94,34 %
21.12.2020 02:04 6,1 C 5,6 C 3,3 C 94 % 1020,8 hPa 0,0 l/m 0 min 0 min 0 W/m 0,0 km/h (0 Bft) 93,62 %
21.12.2020 02:06 6,1 C 5,6 C 3,3 C 94 % 1020,8 hPa 0,0 l/m 0 min 0 min 0 W/m 0,0 km/h (0 Bft) 93,48 %
21.12.2020 02:08 6,1 C 5,6 C 3,3 C 94 % 1020,8 hPa 0,0 l/m 0 min 0 min 0 W/m 0,0 km/h (0 Bft) 93,62 %
21.12.2020 02:10 6,1 C 5,6 C 3,3 C 94 % 1020,8 hPa 0,0 l/m 0 min 0 min 0 W/m 0,0 km/h (0 Bft) 93,62 %
21.12.2020 02:12 6,0 C 5,6 C 3,3 C 94 % 1020,8 hPa 0,0 l/m 0 min 0 min 0 W/m 0,0 km/h (0 Bft) 93,62 %
21.12.2020 02:14 6,0 C 5,6 C 3,3 C 94 % 1020,9 hPa 0,0 l/m 0 min 0 min 0 W/m 0,0 km/h (0 Bft) 91,49 %
21.12.2020 02:16 6,0 C 5,6 C 3,3 C 94 % 1020,9 hPa 0,0 l/m 0 min 0 min 0 W/m 3,2 km/h (1 Bft) 91,49 %
21.12.2020 02:18 6,0 C 5,6 C 3,3 C 94 % 1020,9 hPa 0,0 l/m 0 min 0 min 0 W/m 0,0 km/h (0 Bft) 93,48 %
21.12.2020 02:20 6,0 C 5,6 C 3,3 C 94 % 1020,9 hPa 0,0 l/m 0 min 0 min 0 W/m 0,0 km/h (0 Bft) 93,62 %
21.12.2020 02:22 6,0 C 5,6 C 3,3 C 94 % 1020,9 hPa 0,0 l/m 0 min 0 min 0 W/m 0,0 km/h (0 Bft) 91,49 %
21.12.2020 02:24 6,0 C 5,0 C 3,3 C 94 % 1020,9 hPa 0,0 l/m 0 min 0 min 0 W/m 0,0 km/h (0 Bft) 93,62 %
21.12.2020 02:26 6,0 C 5,0 C 3,3 C 94 % 1020,9 hPa 0,0 l/m 0 min 0 min 0 W/m 0,0 km/h (0 Bft) 95,12 %
21.12.2020 02:28 6,0 C 5,0 C 3,3 C 94 % 1020,9 hPa 0,0 l/m 0 min 0 min 0 W/m 12,9 km/h (3 Bft) 95,65 %
21.12.2020 02:30 6,0 C 5,0 C 3,3 C 94 % 1020,8 hPa 0,0 l/m 0 min 0 min 0 W/m 0,0 km/h (0 Bft) 95,74 %
21.12.2020 02:32 5,9 C 5,0 C 3,3 C 94 % 1020,9 hPa 0,0 l/m 0 min 0 min 0 W/m 0,0 km/h (0 Bft) 95,74 %
21.12.2020 02:34 5,9 C 5,0 C 3,3 C 94 % 1020,9 hPa 0,0 l/m 0 min 0 min 0 W/m 0,0 km/h (0 Bft) 89,36 %
21.12.2020 02:36 5,9 C 5,0 C 3,3 C 94 % 1020,9 hPa 0,0 l/m 0 min 0 min 0 W/m 0,0 km/h (0 Bft) 93,62 %
21.12.2020 02:38 5,9 C 5,0 C 3,3 C 94 % 1020,9 hPa 0,0 l/m 0 min 0 min 0 W/m 0,0 km/h (0 Bft) 93,62 %
21.12.2020 02:40 5,9 C 5,0 C 3,3 C 94 % 1020,9 hPa 0,0 l/m 0 min 0 min 0 W/m 0,0 km/h (0 Bft) 95,65 %
21.12.2020 02:42 5,9 C 5,0 C 3,3 C 94 % 1020,9 hPa 0,0 l/m 0 min 0 min 0 W/m 0,0 km/h (0 Bft) 95,74 %
21.12.2020 02:44 5,8 C 5,0 C 3,3 C 94 % 1020,9 hPa 0,0 l/m 0 min 0 min 0 W/m 0,0 km/h (0 Bft) 95,74 %
21.12.2020 02:46 5,8 C 5,0 C 2,7 C 94 % 1020,9 hPa 0,0 l/m 0 min 0 min 0 W/m 0,0 km/h (0 Bft) 95,74 %
21.12.2020 02:48 5,8 C 5,0 C 2,7 C 94 % 1020,9 hPa 0,0 l/m 0 min 0 min 0 W/m 0,0 km/h (0 Bft) 97,87 %
21.12.2020 02:50 5,8 C 5,0 C 2,7 C 94 % 1020,9 hPa 0,0 l/m 0 min 0 min 0 W/m 0,0 km/h (0 Bft) 97,87 %
21.12.2020 02:52 5,8 C 5,0 C 3,3 C 94 % 1020,9 hPa 0,0 l/m 0 min 0 min 0 W/m 0,0 km/h (0 Bft) 97,83 %
21.12.2020 02:54 5,7 C 5,0 C 3,3 C 94 % 1020,9 hPa 0,0 l/m 0 min 0 min 0 W/m 0,0 km/h (0 Bft) 97,87 %
21.12.2020 02:56 5,7 C 5,0 C 3,3 C 94 % 1020,9 hPa 0,0 l/m 0 min 0 min 0 W/m 0,0 km/h (0 Bft) 95,74 %
21.12.2020 02:58 5,6 C 5,0 C 3,3 C 94 % 1021,0 hPa 0,0 l/m 0 min 0 min 0 W/m 0,0 km/h (0 Bft) 97,87 %
21.12.2020 03:00 5,6 C 5,0 C 3,3 C 94 % 1020,9 hPa 0,0 l/m 0 min 0 min 0 W/m 0,0 km/h (0 Bft) 97,87 %
21.12.2020 03:02 5,6 C 4,4 C 2,7 C 94 % 1020,9 hPa 0,0 l/m 0 min 0 min 0 W/m 0,0 km/h (0 Bft) 95,74 %
21.12.2020 03:04 5,6 C 4,4 C 2,7 C 94 % 1020,9 hPa 0,0 l/m 0 min 0 min 0 W/m 0,0 km/h (0 Bft) 97,83 %
21.12.2020 03:06 5,5 C 4,4 C 2,7 C 94 % 1020,9 hPa 0,0 l/m 0 min 0 min 0 W/m 0,0 km/h (0 Bft) 95,74 %
21.12.2020 03:08 5,5 C 4,4 C 2,7 C 94 % 1020,9 hPa 0,0 l/m 0 min 0 min 0 W/m 0,0 km/h (0 Bft) 97,87 %
21.12.2020 03:10 5,5 C 4,4 C 2,7 C 94 % 1020,9 hPa 0,0 l/m 0 min 0 min 0 W/m 0,0 km/h (0 Bft) 97,87 %
21.12.2020 03:12 5,5 C 4,4 C 2,7 C 94 % 1021,0 hPa 0,0 l/m 0 min 0 min 0 W/m 0,0 km/h (0 Bft) 97,87 %
21.12.2020 03:14 5,5 C 4,4 C 2,7 C 94 % 1020,9 hPa 0,0 l/m 0 min 0 min 0 W/m 0,0 km/h (0 Bft) 97,87 %
21.12.2020 03:16 5,5 C 4,4 C 2,7 C 94 % 1020,9 hPa 0,0 l/m 0 min 0 min 0 W/m 0,0 km/h (0 Bft) 100,00 %
21.12.2020 03:18 5,4 C 4,4 C 2,7 C 94 % 1020,9 hPa 0,0 l/m 0 min 0 min 0 W/m 0,0 km/h (0 Bft) 100,00 %
21.12.2020 03:20 5,4 C 4,4 C 2,7 C 94 % 1020,9 hPa 0,0 l/m 0 min 0 min 0 W/m 0,0 km/h (0 Bft) 100,00 %
21.12.2020 03:22 5,4 C 4,4 C 2,7 C 94 % 1020,9 hPa 0,0 l/m 0 min 0 min 0 W/m 0,0 km/h (0 Bft) 100,00 %
21.12.2020 03:24 5,4 C 4,4 C 3,3 C 94 % 1020,9 hPa 0,0 l/m 0 min 0 min 0 W/m 0,0 km/h (0 Bft) 95,74 %
21.12.2020 03:26 5,4 C 4,4 C 3,3 C 95 % 1020,9 hPa 0,0 l/m 0 min 0 min 0 W/m 0,0 km/h (0 Bft) 97,87 %
21.12.2020 03:28 5,4 C 4,4 C 3,3 C 94 % 1020,9 hPa 0,0 l/m 0 min 0 min 0 W/m 0,0 km/h (0 Bft) 100,00 %
21.12.2020 03:30 5,4 C 5,0 C 3,3 C 94 % 1020,9 hPa 0,0 l/m 0 min 0 min 0 W/m 0,0 km/h (0 Bft) 100,00 %
21.12.2020 03:32 5,4 C 4,4 C 3,3 C 95 % 1020,8 hPa 0,0 l/m 0 min 0 min 0 W/m 0,0 km/h (0 Bft) 97,87 %
21.12.2020 03:34 5,4 C 5,0 C 3,3 C 95 % 1020,9 hPa 0,0 l/m 0 min 0 min 0 W/m 0,0 km/h (0 Bft) 100,00 %
21.12.2020 03:36 5,4 C 5,0 C 3,3 C 95 % 1020,9 hPa 0,0 l/m 0 min 0 min 0 W/m 0,0 km/h (0 Bft) 100,00 %
21.12.2020 03:38 5,4 C 5,0 C 3,3 C 95 % 1020,9 hPa 0,0 l/m 0 min 0 min 0 W/m 0,0 km/h (0 Bft) 100,00 %
21.12.2020 03:40 5,4 C 5,0 C 3,3 C 95 % 1020,9 hPa 0,0 l/m 0 min 0 min 0 W/m 0,0 km/h (0 Bft) 100,00 %
21.12.2020 03:42 5,4 C 5,0 C 3,3 C 95 % 1020,9 hPa 0,0 l/m 0 min 0 min 0 W/m 0,0 km/h (0 Bft) 97,87 %
21.12.2020 03:44 5,4 C 5,0 C 3,3 C 95 % 1020,9 hPa 0,0 l/m 0 min 0 min 0 W/m 0,0 km/h (0 Bft) 100,00 %
21.12.2020 03:46 5,4 C 5,0 C 3,3 C 95 % 1020,9 hPa 0,0 l/m 0 min 0 min 0 W/m 0,0 km/h (0 Bft) 100,00 %
21.12.2020 03:48 5,4 C 5,0 C 3,3 C 95 % 1020,9 hPa 0,0 l/m 0 min 0 min 0 W/m 0,0 km/h (0 Bft) 100,00 %
21.12.2020 03:50 5,4 C 5,0 C 3,3 C 95 % 1020,9 hPa 0,0 l/m 0 min 0 min 0 W/m 0,0 km/h (0 Bft) 100,00 %
21.12.2020 03:52 5,4 C 5,0 C 3,3 C 95 % 1020,9 hPa 0,0 l/m 0 min 0 min 0 W/m 0,0 km/h (0 Bft) 97,87 %
21.12.2020 03:54 5,4 C 5,0 C 3,3 C 95 % 1020,9 hPa 0,0 l/m 0 min 0 min 0 W/m 3,2 km/h (1 Bft) 100,00 %
21.12.2020 03:56 5,4 C 5,0 C 3,3 C 95 % 1020,9 hPa 0,0 l/m 0 min 0 min 0 W/m 12,9 km/h (3 Bft) 100,00 %
21.12.2020 03:58 5,4 C 5,0 C 3,3 C 95 % 1020,9 hPa 0,0 l/m 0 min 0 min 0 W/m 0,0 km/h (0 Bft) 100,00 %
21.12.2020 04:00 5,4 C 5,0 C 3,3 C 95 % 1020,9 hPa 0,0 l/m 0 min 0 min 0 W/m 0,0 km/h (0 Bft) 100,00 %
21.12.2020 04:06 5,3 C 4,4 C 3,3 C 95 % 1020,9 hPa 0,0 l/m 0 min 0 min 0 W/m 0,0 km/h (0 Bft) 100,00 %
21.12.2020 04:08 5,3 C 5,0 C 3,3 C 95 % 1020,9 hPa 0,0 l/m 0 min 0 min 0 W/m 6,4 km/h (2 Bft) 100,00 %
21.12.2020 04:10 5,3 C 4,4 C 3,3 C 95 % 1020,9 hPa 0,0 l/m 0 min 0 min 0 W/m 0,0 km/h (0 Bft) 100,00 %
21.12.2020 04:12 5,3 C 4,4 C 3,3 C 95 % 1020,9 hPa 0,0 l/m 0 min 0 min 0 W/m 0,0 km/h (0 Bft) 97,87 %
21.12.2020 04:14 5,3 C 4,4 C 3,3 C 95 % 1020,9 hPa 0,0 l/m 0 min 0 min 0 W/m 0,0 km/h (0 Bft) 97,83 %
21.12.2020 04:16 5,3 C 4,4 C 3,3 C 95 % 1020,8 hPa 0,0 l/m 0 min 0 min 0 W/m 0,0 km/h (0 Bft) 97,87 %
21.12.2020 04:18 5,3 C 4,4 C 3,3 C 95 % 1020,8 hPa 0,0 l/m 0 min 0 min 0 W/m 0,0 km/h (0 Bft) 97,87 %
21.12.2020 04:20 5,3 C 4,4 C 3,3 C 95 % 1020,8 hPa 0,0 l/m 0 min 0 min 0 W/m 3,2 km/h (1 Bft) 97,87 %
21.12.2020 04:22 5,3 C 4,4 C 3,3 C 95 % 1020,8 hPa 0,0 l/m 0 min 0 min 0 W/m 12,9 km/h (3 Bft) 95,74 %
21.12.2020 04:24 5,3 C 4,4 C 3,3 C 95 % 1020,8 hPa 0,0 l/m 0 min 0 min 0 W/m 3,2 km/h (1 Bft) 95,74 %
21.12.2020 04:26 5,2 C 4,4 C 3,3 C 95 % 1020,7 hPa 0,0 l/m 0 min 0 min 0 W/m 0,0 km/h (0 Bft) 97,83 %
21.12.2020 04:28 5,2 C 4,4 C 3,3 C 95 % 1020,6 hPa 0,0 l/m 0 min 0 min 0 W/m 0,0 km/h (0 Bft) 97,87 %
21.12.2020 04:30 5,2 C 4,4 C 2,7 C 95 % 1020,7 hPa 0,0 l/m 0 min 0 min 0 W/m 0,0 km/h (0 Bft) 95,74 %
21.12.2020 04:32 5,2 C 4,4 C 2,7 C 95 % 1020,7 hPa 0,0 l/m 0 min 0 min 0 W/m 0,0 km/h (0 Bft) 97,87 %
21.12.2020 04:34 5,2 C 4,4 C 2,7 C 95 % 1020,6 hPa 0,0 l/m 0 min 0 min 0 W/m 0,0 km/h (0 Bft) 97,87 %
21.12.2020 04:36 5,2 C 4,4 C 2,7 C 95 % 1020,7 hPa 0,0 l/m 0 min 0 min 0 W/m 0,0 km/h (0 Bft) 97,87 %
21.12.2020 04:38 5,1 C 4,4 C 2,7 C 95 % 1020,7 hPa 0,0 l/m 0 min 0 min 0 W/m 0,0 km/h (0 Bft) 97,87 %
21.12.2020 04:40 5,1 C 4,4 C 2,7 C 95 % 1020,6 hPa 0,0 l/m 0 min 0 min 0 W/m 0,0 km/h (0 Bft) 97,87 %
21.12.2020 04:42 5,1 C 4,4 C 2,7 C 95 % 1020,7 hPa 0,0 l/m 0 min 0 min 0 W/m 0,0 km/h (0 Bft) 97,87 %
21.12.2020 04:44 5,1 C 4,4 C 2,7 C 95 % 1020,7 hPa 0,0 l/m 0 min 0 min 0 W/m 0,0 km/h (0 Bft) 97,87 %
21.12.2020 04:46 5,0 C 4,4 C 2,7 C 95 % 1020,7 hPa 0,0 l/m 0 min 0 min 0 W/m 0,0 km/h (0 Bft) 97,87 %
21.12.2020 04:48 5,0 C 4,4 C 2,7 C 95 % 1020,7 hPa 0,0 l/m 0 min 0 min 0 W/m 0,0 km/h (0 Bft) 95,65 %
21.12.2020 04:50 5,0 C 3,9 C 2,7 C 95 % 1020,6 hPa 0,0 l/m 0 min 0 min 0 W/m 0,0 km/h (0 Bft) 95,74 %
21.12.2020 04:52 5,0 C 3,9 C 2,7 C 95 % 1020,6 hPa 0,0 l/m 0 min 0 min 0 W/m 0,0 km/h (0 Bft) 95,74 %
21.12.2020 04:54 4,9 C 3,9 C 2,7 C 95 % 1020,6 hPa 0,0 l/m 0 min 0 min 0 W/m 0,0 km/h (0 Bft) 95,74 %
21.12.2020 04:56 4,9 C 3,9 C 2,7 C 95 % 1020,6 hPa 0,0 l/m 0 min 0 min 0 W/m 0,0 km/h (0 Bft) 93,62 %
21.12.2020 04:58 4,9 C 3,9 C 2,7 C 95 % 1020,6 hPa 0,0 l/m 0 min 0 min 0 W/m 0,0 km/h (0 Bft) 95,74 %
21.12.2020 05:00 4,8 C 3,9 C 2,7 C 95 % 1020,6 hPa 0,0 l/m 0 min 0 min 0 W/m 0,0 km/h (0 Bft) 97,83 %
21.12.2020 05:02 4,8 C 3,9 C 2,7 C 95 % 1020,6 hPa 0,0 l/m 0 min 0 min 0 W/m 0,0 km/h (0 Bft) 100,00 %
21.12.2020 05:04 4,8 C 3,9 C 2,7 C 95 % 1020,7 hPa 0,0 l/m 0 min 0 min 0 W/m 0,0 km/h (0 Bft) 97,87 %
21.12.2020 05:06 4,7 C 3,9 C 2,7 C 95 % 1020,7 hPa 0,0 l/m 0 min 0 min 0 W/m 0,0 km/h (0 Bft) 93,62 %
21.12.2020 05:08 4,6 C 3,9 C 2,7 C 95 % 1020,7 hPa 0,0 l/m 0 min 0 min 0 W/m 0,0 km/h (0 Bft) 97,87 %
21.12.2020 05:10 4,6 C 3,9 C 2,7 C 95 % 1020,7 hPa 0,0 l/m 0 min 0 min 0 W/m 3,2 km/h (1 Bft) 95,74 %
21.12.2020 05:12 4,6 C 3,9 C 2,2 C 95 % 1020,6 hPa 0,0 l/m 0 min 0 min 0 W/m 3,2 km/h (1 Bft) 95,65 %
21.12.2020 05:14 4,5 C 3,9 C 2,2 C 95 % 1020,6 hPa 0,0 l/m 0 min 0 min 0 W/m 0,0 km/h (0 Bft) 97,87 %
21.12.2020 05:16 4,5 C 3,9 C 2,2 C 95 % 1020,6 hPa 0,0 l/m 0 min 0 min 0 W/m 0,0 km/h (0 Bft) 95,74 %
21.12.2020 05:18 4,5 C 3,9 C 2,2 C 95 % 1020,6 hPa 0,0 l/m 0 min 0 min 0 W/m 0,0 km/h (0 Bft) 97,87 %
21.12.2020 05:20 4,5 C 3,9 C 2,2 C 95 % 1020,6 hPa 0,0 l/m 0 min 0 min 0 W/m 0,0 km/h (0 Bft) 97,87 %
21.12.2020 05:22 4,5 C 3,9 C 2,2 C 95 % 1020,6 hPa 0,0 l/m 0 min 0 min 0 W/m 0,0 km/h (0 Bft) 97,83 %
21.12.2020 05:24 4,4 C 3,9 C 2,2 C 95 % 1020,6 hPa 0,0 l/m 0 min 0 min 0 W/m 0,0 km/h (0 Bft) 95,74 %
21.12.2020 05:26 4,4 C 3,9 C 2,2 C 95 % 1020,6 hPa 0,0 l/m 0 min 0 min 0 W/m 0,0 km/h (0 Bft) 97,87 %
21.12.2020 05:28 4,4 C 3,9 C 2,2 C 95 % 1020,5 hPa 0,0 l/m 0 min 0 min 0 W/m 0,0 km/h (0 Bft) 97,87 %
21.12.2020 05:30 4,4 C 3,9 C 2,2 C 95 % 1020,6 hPa 0,0 l/m 0 min 0 min 0 W/m 0,0 km/h (0 Bft) 97,44 %
21.12.2020 05:32 4,4 C 3,9 C 2,2 C 95 % 1020,6 hPa 0,0 l/m 0 min 0 min 0 W/m 0,0 km/h (0 Bft) 97,87 %
21.12.2020 05:34 4,4 C 3,9 C 2,2 C 95 % 1020,6 hPa 0,0 l/m 0 min 0 min 0 W/m 0,0 km/h (0 Bft) 97,83 %
21.12.2020 05:36 4,4 C 3,9 C 2,2 C 95 % 1020,5 hPa 0,0 l/m 0 min 0 min 0 W/m 0,0 km/h (0 Bft) 97,87 %
21.12.2020 05:38 4,4 C 3,9 C 2,2 C 95 % 1020,5 hPa 0,0 l/m 0 min 0 min 0 W/m 0,0 km/h (0 Bft) 97,87 %
21.12.2020 05:40 4,4 C 3,9 C 2,2 C 95 % 1020,5 hPa 0,0 l/m 0 min 0 min 0 W/m 0,0 km/h (0 Bft) 100,00 %
21.12.2020 05:42 4,3 C 3,9 C 2,2 C 95 % 1020,5 hPa 0,0 l/m 0 min 0 min 0 W/m 0,0 km/h (0 Bft) 100,00 %
21.12.2020 05:44 4,3 C 3,9 C 2,2 C 95 % 1020,5 hPa 0,0 l/m 0 min 0 min 0 W/m 0,0 km/h (0 Bft) 100,00 %
21.12.2020 05:46 4,3 C 3,9 C 2,2 C 95 % 1020,5 hPa 0,0 l/m 0 min 0 min 0 W/m 0,0 km/h (0 Bft) 95,65 %
21.12.2020 05:48 4,3 C 3,9 C 2,7 C 95 % 1020,5 hPa 0,0 l/m 0 min 0 min 0 W/m 0,0 km/h (0 Bft) 95,74 %
21.12.2020 05:50 4,3 C 3,9 C 2,7 C 95 % 1020,5 hPa 0,0 l/m 0 min 0 min 0 W/m 0,0 km/h (0 Bft) 100,00 %
21.12.2020 05:52 4,3 C 3,9 C 2,7 C 95 % 1020,5 hPa 0,0 l/m 0 min 0 min 0 W/m 3,2 km/h (1 Bft) 100,00 %
21.12.2020 05:54 4,3 C 3,9 C 2,7 C 95 % 1020,4 hPa 0,0 l/m 0 min 0 min 0 W/m 0,0 km/h (0 Bft) 100,00 %
21.12.2020 05:56 4,3 C 3,9 C 2,7 C 95 % 1020,4 hPa 0,0 l/m 0 min 0 min 0 W/m 0,0 km/h (0 Bft) 100,00 %
21.12.2020 05:58 4,3 C 3,9 C 2,7 C 95 % 1020,4 hPa 0,0 l/m 0 min 0 min 0 W/m 0,0 km/h (0 Bft) 97,83 %
21.12.2020 06:00 4,3 C 3,9 C 2,7 C 95 % 1020,3 hPa 0,0 l/m 0 min 0 min 0 W/m 3,2 km/h (1 Bft) 100,00 %
21.12.2020 06:02 4,3 C 3,9 C 2,7 C 95 % 1020,3 hPa 0,0 l/m 0 min 0 min 0 W/m 0,0 km/h (0 Bft) 100,00 %
21.12.2020 06:04 4,4 C 3,9 C 2,7 C 96 % 1020,2 hPa 0,0 l/m 0 min 0 min 0 W/m 0,0 km/h (0 Bft) 97,87 %
21.12.2020 06:08 4,3 C 3,9 C 2,7 C 96 % 1020,2 hPa 0,0 l/m 0 min 0 min 0 W/m 6,4 km/h (2 Bft) 100,00 %
21.12.2020 06:10 4,4 C 3,9 C 2,7 C 96 % 1020,2 hPa 0,0 l/m 0 min 0 min 0 W/m 0,0 km/h (0 Bft) 100,00 %
21.12.2020 06:12 4,4 C 3,9 C 2,7 C 96 % 1020,1 hPa 0,0 l/m 0 min 0 min 0 W/m 0,0 km/h (0 Bft) 100,00 %
21.12.2020 06:14 4,4 C 3,9 C 2,7 C 96 % 1020,1 hPa 0,0 l/m 0 min 0 min 0 W/m 0,0 km/h (0 Bft) 97,87 %
21.12.2020 06:16 4,4 C 3,9 C 2,7 C 96 % 1020,1 hPa 0,0 l/m 0 min 0 min 0 W/m 0,0 km/h (0 Bft) 100,00 %
21.12.2020 06:18 4,4 C 3,9 C 2,7 C 96 % 1020,0 hPa 0,0 l/m 0 min 0 min 0 W/m 0,0 km/h (0 Bft) 100,00 %
21.12.2020 06:20 4,4 C 3,9 C 2,7 C 96 % 1020,0 hPa 0,0 l/m 0 min 0 min 0 W/m 0,0 km/h (0 Bft) 97,87 %
21.12.2020 06:22 4,4 C 3,9 C 2,7 C 96 % 1019,9 hPa 0,0 l/m 0 min 0 min 0 W/m 0,0 km/h (0 Bft) 100,00 %
21.12.2020 06:24 4,4 C 3,9 C 2,7 C 96 % 1019,9 hPa 0,0 l/m 0 min 0 min 0 W/m 0,0 km/h (0 Bft) 100,00 %
21.12.2020 06:26 4,4 C 3,9 C 2,7 C 96 % 1019,9 hPa 0,0 l/m 0 min 0 min 0 W/m 6,4 km/h (2 Bft) 100,00 %
21.12.2020 06:28 4,5 C 3,9 C 2,7 C 96 % 1019,9 hPa 0,0 l/m 0 min 0 min 0 W/m 0,0 km/h (0 Bft) 100,00 %
21.12.2020 06:30 4,5 C 3,9 C 2,7 C 96 % 1019,9 hPa 0,0 l/m 0 min 0 min 0 W/m 0,0 km/h (0 Bft) 97,87 %
21.12.2020 06:32 4,5 C 3,9 C 2,7 C 96 % 1019,9 hPa 0,0 l/m 0 min 0 min 0 W/m 3,2 km/h (1 Bft) 100,00 %
21.12.2020 06:34 4,5 C 3,9 C 2,7 C 96 % 1019,8 hPa 0,0 l/m 0 min 0 min 0 W/m 0,0 km/h (0 Bft) 97,87 %
21.12.2020 06:36 4,5 C 3,9 C 2,7 C 96 % 1019,8 hPa 0,0 l/m 0 min 0 min 0 W/m 0,0 km/h (0 Bft) 100,00 %
21.12.2020 06:38 4,5 C 3,9 C 2,7 C 96 % 1019,8 hPa 0,0 l/m 0 min 0 min 0 W/m 3,2 km/h (1 Bft) 100,00 %
21.12.2020 06:40 4,5 C 3,9 C 2,7 C 96 % 1019,8 hPa 0,0 l/m 0 min 0 min 0 W/m 3,2 km/h (1 Bft) 97,87 %
21.12.2020 06:42 4,5 C 3,9 C 2,7 C 96 % 1019,8 hPa 0,0 l/m 0 min 0 min 0 W/m 6,4 km/h (2 Bft) 100,00 %
21.12.2020 06:44 4,5 C 3,9 C 2,7 C 96 % 1019,8 hPa 0,0 l/m 0 min 0 min 0 W/m 12,9 km/h (3 Bft) 93,48 %
21.12.2020 06:46 4,5 C 3,9 C 2,7 C 96 % 1019,8 hPa 0,0 l/m 0 min 0 min 0 W/m 3,2 km/h (1 Bft) 97,87 %
21.12.2020 06:48 4,5 C 3,9 C 2,7 C 96 % 1019,8 hPa 0,0 l/m 0 min 0 min 0 W/m 0,0 km/h (0 Bft) 97,87 %
21.12.2020 06:50 4,5 C 3,9 C 2,7 C 96 % 1019,8 hPa 0,0 l/m 0 min 0 min 0 W/m 6,4 km/h (2 Bft) 97,87 %
21.12.2020 06:52 4,5 C 3,9 C 2,7 C 96 % 1019,8 hPa 0,0 l/m 0 min 0 min 0 W/m 6,4 km/h (2 Bft) 95,74 %
21.12.2020 06:54 4,5 C 3,9 C 2,7 C 96 % 1019,7 hPa 0,0 l/m 0 min 0 min 0 W/m 12,9 km/h (3 Bft) 97,87 %
21.12.2020 06:56 4,5 C 3,9 C 2,7 C 96 % 1019,7 hPa 0,0 l/m 0 min 0 min 0 W/m 0,0 km/h (0 Bft) 97,83 %
21.12.2020 06:58 4,5 C 3,9 C 2,7 C 96 % 1019,7 hPa 0,0 l/m 0 min 0 min 0 W/m 0,0 km/h (0 Bft) 97,87 %
21.12.2020 07:00 4,5 C 3,9 C 2,7 C 96 % 1019,7 hPa 0,0 l/m 0 min 0 min 0 W/m 0,0 km/h (0 Bft) 97,92 %
21.12.2020 07:02 4,6 C 3,9 C 2,7 C 96 % 1019,7 hPa 0,0 l/m 0 min 0 min 0 W/m 0,0 km/h (0 Bft) 97,92 %
21.12.2020 07:04 4,6 C 3,9 C 2,7 C 96 % 1019,7 hPa 0,0 l/m 0 min 0 min 0 W/m 0,0 km/h (0 Bft) 97,87 %
21.12.2020 07:06 4,6 C 4,4 C 2,7 C 96 % 1019,7 hPa 0,0 l/m 0 min 0 min 0 W/m 12,9 km/h (3 Bft) 97,87 %
21.12.2020 07:08 4,6 C 4,4 C 2,7 C 96 % 1019,7 hPa 0,0 l/m 0 min 0 min 0 W/m 3,2 km/h (1 Bft) 97,92 %
21.12.2020 07:10 4,6 C 4,4 C 2,7 C 96 % 1019,7 hPa 0,0 l/m 0 min 0 min 0 W/m 3,2 km/h (1 Bft) 97,14 %
21.12.2020 07:12 4,6 C 4,4 C 2,7 C 96 % 1019,7 hPa 0,0 l/m 0 min 0 min 0 W/m 0,0 km/h (0 Bft) 98,11 %
21.12.2020 07:14 4,6 C 4,4 C 2,7 C 96 % 1019,7 hPa 0,0 l/m 0 min 0 min 0 W/m 3,2 km/h (1 Bft) 97,87 %
21.12.2020 07:16 4,6 C 4,4 C 2,7 C 96 % 1019,6 hPa 0,0 l/m 0 min 0 min 0 W/m 0,0 km/h (0 Bft) 95,74 %
21.12.2020 07:18 4,6 C 4,4 C 2,7 C 96 % 1019,6 hPa 0,0 l/m 0 min 0 min 0 W/m 0,0 km/h (0 Bft) 95,74 %
21.12.2020 07:20 4,6 C 4,4 C 2,7 C 96 % 1019,6 hPa 0,0 l/m 0 min 0 min 0 W/m 0,0 km/h (0 Bft) 95,65 %
21.12.2020 07:22 4,7 C 4,4 C 2,7 C 96 % 1019,7 hPa 0,0 l/m 0 min 0 min 0 W/m 3,2 km/h (1 Bft) 97,87 %
21.12.2020 07:24 4,7 C 4,4 C 3,3 C 96 % 1019,7 hPa 0,0 l/m 0 min 0 min 0 W/m 3,2 km/h (1 Bft) 97,87 %
21.12.2020 07:26 4,7 C 4,4 C 3,3 C 96 % 1019,7 hPa 0,0 l/m 0 min 0 min 0 W/m 0,0 km/h (0 Bft) 100,00 %
21.12.2020 07:28 4,8 C 4,4 C 3,3 C 96 % 1019,7 hPa 0,0 l/m 0 min 0 min 0 W/m 0,0 km/h (0 Bft) 100,00 %
21.12.2020 07:30 4,8 C 4,4 C 3,3 C 96 % 1019,7 hPa 0,0 l/m 0 min 0 min 0 W/m 0,0 km/h (0 Bft) 100,00 %
21.12.2020 07:32 4,8 C 4,4 C 3,3 C 96 % 1019,7 hPa 0,0 l/m 0 min 0 min 0 W/m 0,0 km/h (0 Bft) 100,00 %
21.12.2020 07:34 4,8 C 4,4 C 3,3 C 96 % 1019,7 hPa 0,0 l/m 0 min 0 min 0 W/m 0,0 km/h (0 Bft) 100,00 %
21.12.2020 07:36 4,8 C 4,4 C 3,3 C 96 % 1019,8 hPa 0,0 l/m 0 min 0 min 0 W/m 3,2 km/h (1 Bft) 100,00 %
21.12.2020 07:38 4,8 C 4,4 C 3,3 C 96 % 1019,8 hPa 0,0 l/m 0 min 0 min 0 W/m 6,4 km/h (2 Bft) 100,00 %
21.12.2020 07:40 4,8 C 4,4 C 3,3 C 96 % 1019,8 hPa 0,0 l/m 0 min 0 min 0 W/m 0,0 km/h (0 Bft) 100,00 %
21.12.2020 07:42 4,8 C 4,4 C 3,3 C 96 % 1019,8 hPa 0,0 l/m 0 min 0 min 0 W/m 0,0 km/h (0 Bft) 97,83 %
21.12.2020 07:44 4,9 C 4,4 C 3,3 C 96 % 1019,7 hPa 0,0 l/m 0 min 0 min 0 W/m 0,0 km/h (0 Bft) 97,87 %
21.12.2020 07:46 4,9 C 4,4 C 3,3 C 96 % 1019,7 hPa 0,0 l/m 0 min 0 min 0 W/m 0,0 km/h (0 Bft) 97,87 %
21.12.2020 07:48 4,9 C 4,4 C 3,3 C 96 % 1019,6 hPa 0,0 l/m 0 min 0 min 0 W/m 0,0 km/h (0 Bft) 100,00 %
21.12.2020 07:50 4,9 C 4,4 C 3,3 C 96 % 1019,6 hPa 0,0 l/m 0 min 0 min 0 W/m 0,0 km/h (0 Bft) 97,87 %
21.12.2020 07:52 4,9 C 4,4 C 3,3 C 95 % 1019,6 hPa 0,0 l/m 0 min 0 min 0 W/m 0,0 km/h (0 Bft) 97,87 %
21.12.2020 07:54 4,9 C 4,4 C 3,3 C 95 % 1019,6 hPa 0,0 l/m 0 min 0 min 0 W/m 0,0 km/h (0 Bft) 95,65 %
21.12.2020 07:56 4,9 C 4,4 C 3,3 C 95 % 1019,6 hPa 0,0 l/m 0 min 0 min 0 W/m 3,2 km/h (1 Bft) 95,74 %
21.12.2020 07:58 4,9 C 4,4 C 3,3 C 95 % 1019,6 hPa 0,0 l/m 0 min 0 min 0 W/m 3,2 km/h (1 Bft) 97,87 %
21.12.2020 08:00 4,9 C 4,4 C 3,3 C 95 % 1019,7 hPa 0,0 l/m 0 min 0 min 0 W/m 6,4 km/h (2 Bft) 95,74 %
21.12.2020 08:02 5,0 C 4,4 C 3,3 C 95 % 1019,6 hPa 0,0 l/m 0 min 0 min 0 W/m 3,2 km/h (1 Bft) 97,87 %
21.12.2020 08:04 5,0 C 4,4 C 3,3 C 96 % 1019,6 hPa 0,0 l/m 0 min 0 min 0 W/m 0,0 km/h (0 Bft) 97,87 %
21.12.2020 08:06 5,0 C 4,4 C 3,3 C 96 % 1019,6 hPa 0,0 l/m 0 min 0 min 0 W/m 3,2 km/h (1 Bft) 97,83 %
21.12.2020 08:08 5,0 C 5,0 C 3,3 C 96 % 1019,6 hPa 0,0 l/m 0 min 0 min 0 W/m 0,0 km/h (0 Bft) 97,87 %
21.12.2020 08:10 5,0 C 5,0 C 3,3 C 96 % 1019,7 hPa 0,0 l/m 0 min 0 min 0 W/m 9,7 km/h (2 Bft) 97,87 %
21.12.2020 08:12 5,0 C 5,0 C 3,3 C 96 % 1019,7 hPa 0,0 l/m 0 min 0 min 0 W/m 0,0 km/h (0 Bft) 93,62 %
21.12.2020 08:14 5,0 C 5,0 C 3,3 C 96 % 1019,7 hPa 0,0 l/m 0 min 0 min 0 W/m 0,0 km/h (0 Bft) 97,87 %
21.12.2020 08:16 5,1 C 5,0 C 3,3 C 96 % 1019,6 hPa 0,0 l/m 0 min 0 min 0 W/m 0,0 km/h (0 Bft) 97,83 %
21.12.2020 08:18 5,1 C 5,0 C 3,3 C 96 % 1019,5 hPa 0,0 l/m 0 min 0 min 0 W/m 0,0 km/h (0 Bft) 97,87 %
21.12.2020 08:20 5,1 C 5,0 C 3,3 C 95 % 1019,5 hPa 0,0 l/m 0 min 0 min 0 W/m 0,0 km/h (0 Bft) 95,74 %
21.12.2020 08:22 5,1 C 5,0 C 3,3 C 95 % 1019,6 hPa 0,0 l/m 0 min 0 min 0 W/m 0,0 km/h (0 Bft) 97,87 %
21.12.2020 08:24 5,1 C 5,0 C 3,3 C 95 % 1019,7 hPa 0,0 l/m 0 min 0 min 0 W/m 0,0 km/h (0 Bft) 95,74 %
21.12.2020 08:26 5,1 C 5,0 C 3,3 C 95 % 1019,7 hPa 0,0 l/m 0 min 0 min 0 W/m 0,0 km/h (0 Bft) 97,87 %
21.12.2020 08:28 5,2 C 5,0 C 3,3 C 95 % 1019,6 hPa 0,0 l/m 0 min 0 min 0 W/m 3,2 km/h (1 Bft) 97,83 %
21.12.2020 08:30 5,2 C 5,0 C 3,3 C 95 % 1019,6 hPa 0,0 l/m 0 min 0 min 0 W/m 0,0 km/h (0 Bft) 97,87 %
21.12.2020 08:32 5,3 C 5,0 C 3,3 C 95 % 1019,5 hPa 0,0 l/m 0 min 0 min 0 W/m 0,0 km/h (0 Bft) 91,49 %
21.12.2020 08:34 5,3 C 5,0 C 3,3 C 95 % 1019,5 hPa 0,0 l/m 0 min 0 min 0 W/m 0,0 km/h (0 Bft) 97,87 %
21.12.2020 08:36 5,3 C 5,0 C 3,3 C 95 % 1019,4 hPa 0,0 l/m 0 min 0 min 0 W/m 0,0 km/h (0 Bft) 95,74 %
21.12.2020 08:38 5,3 C 5,0 C 3,3 C 95 % 1019,5 hPa 0,0 l/m 0 min 0 min 0 W/m 0,0 km/h (0 Bft) 97,87 %
21.12.2020 08:40 5,3 C 5,0 C 3,3 C 95 % 1019,6 hPa 0,0 l/m 0 min 0 min 0 W/m 0,0 km/h (0 Bft) 97,87 %
21.12.2020 08:42 5,3 C 5,0 C 3,8 C 95 % 1019,5 hPa 0,0 l/m 0 min 0 min 0 W/m 0,0 km/h (0 Bft) 97,87 %
21.12.2020 08:44 5,3 C 5,0 C 3,3 C 95 % 1019,5 hPa 0,0 l/m 0 min 0 min 0 W/m 0,0 km/h (0 Bft) 97,87 %
21.12.2020 08:46 5,4 C 5,0 C 3,3 C 95 % 1019,4 hPa 0,0 l/m 0 min 0 min 0 W/m 0,0 km/h (0 Bft) 95,74 %
21.12.2020 08:48 5,4 C 5,0 C 3,3 C 95 % 1019,5 hPa 0,0 l/m 0 min 0 min 0 W/m 0,0 km/h (0 Bft) 97,83 %
21.12.2020 08:50 5,4 C 5,0 C 3,8 C 95 % 1019,5 hPa 0,0 l/m 0 min 0 min 0 W/m 0,0 km/h (0 Bft) 95,74 %
21.12.2020 08:52 5,4 C 5,0 C 3,8 C 95 % 1019,5 hPa 0,0 l/m 0 min 0 min 3 W/m 3,2 km/h (1 Bft) 97,87 %
21.12.2020 08:54 5,4 C 5,0 C 3,8 C 95 % 1019,5 hPa 0,0 l/m 0 min 0 min 5 W/m 0,0 km/h (0 Bft) 97,14 %
21.12.2020 08:56 5,4 C 5,0 C 3,8 C 95 % 1019,6 hPa 0,0 l/m 0 min 0 min 5 W/m 0,0 km/h (0 Bft) 97,87 %
21.12.2020 08:58 5,4 C 5,0 C 3,8 C 95 % 1019,6 hPa 0,0 l/m 0 min 0 min 6 W/m 0,0 km/h (0 Bft) 95,74 %
21.12.2020 09:00 5,5 C 5,0 C 3,8 C 95 % 1019,6 hPa 0,0 l/m 0 min 0 min 7 W/m 0,0 km/h (0 Bft) 95,74 %
21.12.2020 09:02 5,5 C 5,0 C 3,8 C 95 % 1019,6 hPa 0,0 l/m 0 min 0 min 7 W/m 6,4 km/h (2 Bft) 95,74 %
21.12.2020 09:04 5,5 C 5,0 C 3,8 C 95 % 1019,5 hPa 0,0 l/m 0 min 0 min 7 W/m 12,9 km/h (3 Bft) 53,33 %
21.12.2020 09:06 5,5 C 5,0 C 3,8 C 95 % 1019,5 hPa 0,0 l/m 0 min 0 min 9 W/m 12,9 km/h (3 Bft) 95,74 %
21.12.2020 09:08 5,5 C 5,6 C 3,8 C 95 % 1019,5 hPa 0,0 l/m 0 min 0 min 9 W/m 9,7 km/h (2 Bft) 97,87 %
21.12.2020 09:10 5,6 C 5,6 C 3,8 C 95 % 1019,5 hPa 0,0 l/m 0 min 0 min 9 W/m 0,0 km/h (0 Bft) 95,74 %
21.12.2020 09:12 5,6 C 5,6 C 3,8 C 95 % 1019,5 hPa 0,0 l/m 0 min 0 min 9 W/m 9,7 km/h (2 Bft) 97,87 %
21.12.2020 09:14 5,6 C 5,6 C 3,8 C 95 % 1019,5 hPa 0,0 l/m 0 min 0 min 9 W/m 3,2 km/h (1 Bft) 97,83 %
21.12.2020 09:16 5,6 C 5,6 C 3,8 C 95 % 1019,5 hPa 0,0 l/m 0 min 0 min 11 W/m 0,0 km/h (0 Bft) 93,62 %
21.12.2020 09:18 5,6 C 5,6 C 3,8 C 95 % 1019,5 hPa 0,0 l/m 0 min 0 min 11 W/m 0,0 km/h (0 Bft) 95,74 %
21.12.2020 09:20 5,7 C 5,6 C 3,8 C 95 % 1019,4 hPa 0,0 l/m 0 min 0 min 11 W/m 0,0 km/h (0 Bft) 93,62 %
21.12.2020 09:22 5,8 C 5,6 C 3,8 C 95 % 1019,4 hPa 0,0 l/m 0 min 0 min 11 W/m 12,9 km/h (3 Bft) 95,74 %
21.12.2020 09:24 5,8 C 5,6 C 3,8 C 95 % 1019,4 hPa 0,0 l/m 0 min 0 min 12 W/m 0,0 km/h (0 Bft) 93,62 %
21.12.2020 09:26 5,8 C 5,6 C 3,8 C 95 % 1019,4 hPa 0,0 l/m 0 min 0 min 13 W/m 0,0 km/h (0 Bft) 95,65 %
21.12.2020 09:28 5,8 C 5,6 C 3,8 C 95 % 1019,4 hPa 0,0 l/m 0 min 0 min 14 W/m 3,2 km/h (1 Bft) 95,74 %
21.12.2020 09:30 5,8 C 5,6 C 4,4 C 95 % 1019,3 hPa 0,0 l/m 0 min 0 min 16 W/m 0,0 km/h (0 Bft) 95,74 %
21.12.2020 09:32 5,9 C 5,6 C 4,4 C 95 % 1019,3 hPa 0,0 l/m 0 min 0 min 16 W/m 3,2 km/h (1 Bft) 95,74 %
21.12.2020 09:34 5,9 C 5,6 C 4,4 C 95 % 1019,2 hPa 0,0 l/m 0 min 0 min 18 W/m 16,1 km/h (3 Bft) 95,74 %
21.12.2020 09:36 5,9 C 5,6 C 4,4 C 95 % 1019,2 hPa 0,0 l/m 0 min 0 min 18 W/m 0,0 km/h (0 Bft) 94,83 %
21.12.2020 09:38 5,9 C 5,6 C 4,4 C 95 % 1019,2 hPa 0,0 l/m 0 min 0 min 18 W/m 6,4 km/h (2 Bft) 93,62 %
21.12.2020 09:40 5,9 C 5,6 C 4,4 C 95 % 1019,2 hPa 0,0 l/m 0 min 0 min 18 W/m 0,0 km/h (0 Bft) 95,74 %
21.12.2020 09:42 6,0 C 5,6 C 4,4 C 95 % 1019,2 hPa 0,0 l/m 0 min 0 min 19 W/m 0,0 km/h (0 Bft) 95,74 %
21.12.2020 09:44 6,0 C 5,6 C 4,4 C 95 % 1019,2 hPa 0,0 l/m 0 min 0 min 19 W/m 0,0 km/h (0 Bft) 95,74 %
21.12.2020 09:46 6,0 C 5,6 C 4,4 C 95 % 1019,2 hPa 0,0 l/m 0 min 0 min 19 W/m 0,0 km/h (0 Bft) 95,65 %
21.12.2020 09:48 6,0 C 5,6 C 4,4 C 95 % 1019,2 hPa 0,0 l/m 0 min 0 min 20 W/m 0,0 km/h (0 Bft) 95,74 %
21.12.2020 09:50 6,0 C 5,6 C 4,4 C 95 % 1019,2 hPa 0,0 l/m 0 min 0 min 21 W/m 0,0 km/h (0 Bft) 95,74 %
21.12.2020 09:52 6,0 C 6,1 C 4,4 C 95 % 1019,3 hPa 0,0 l/m 0 min 0 min 21 W/m 0,0 km/h (0 Bft) 95,74 %
21.12.2020 09:54 6,1 C 6,1 C 4,4 C 95 % 1019,2 hPa 0,0 l/m 0 min 0 min 21 W/m 3,2 km/h (1 Bft) 95,74 %
21.12.2020 09:56 6,1 C 6,1 C 4,4 C 95 % 1019,2 hPa 0,0 l/m 0 min 0 min 21 W/m 0,0 km/h (0 Bft) 93,62 %
21.12.2020 09:58 6,1 C 6,1 C 4,4 C 95 % 1019,2 hPa 0,0 l/m 0 min 0 min 21 W/m 0,0 km/h (0 Bft) 95,65 %
21.12.2020 10:00 6,1 C 6,1 C 4,4 C 95 % 1019,2 hPa 0,0 l/m 0 min 0 min 22 W/m 3,2 km/h (1 Bft) 93,62 %
21.12.2020 10:02 6,1 C 6,1 C 4,4 C 95 % 1019,2 hPa 0,0 l/m 0 min 0 min 23 W/m 0,0 km/h (0 Bft) 97,87 %
21.12.2020 10:04 6,2 C 6,1 C 4,4 C 95 % 1019,2 hPa 0,0 l/m 0 min 0 min 23 W/m 0,0 km/h (0 Bft) 95,74 %
21.12.2020 10:06 6,3 C 6,1 C 4,4 C 95 % 1019,2 hPa 0,0 l/m 0 min 0 min 23 W/m 0,0 km/h (0 Bft) 97,87 %
21.12.2020 10:08 6,3 C 6,1 C 4,4 C 95 % 1019,1 hPa 0,0 l/m 0 min 0 min 21 W/m 0,0 km/h (0 Bft) 97,87 %
21.12.2020 10:10 6,3 C 6,1 C 4,9 C 95 % 1019,1 hPa 0,0 l/m 0 min 0 min 21 W/m 3,2 km/h (1 Bft) 95,65 %
21.12.2020 10:12 6,3 C 6,1 C 4,9 C 95 % 1019,2 hPa 0,0 l/m 0 min 0 min 19 W/m 6,4 km/h (2 Bft) 97,87 %
21.12.2020 10:14 6,3 C 6,1 C 4,9 C 95 % 1019,1 hPa 0,0 l/m 0 min 0 min 19 W/m 0,0 km/h (0 Bft) 97,87 %
21.12.2020 10:16 6,4 C 6,1 C 4,9 C 94 % 1019,2 hPa 0,0 l/m 0 min 0 min 19 W/m 3,2 km/h (1 Bft) 97,87 %
21.12.2020 10:18 6,4 C 6,1 C 4,9 C 94 % 1019,1 hPa 0,0 l/m 0 min 0 min 19 W/m 0,0 km/h (0 Bft) 97,87 %
21.12.2020 10:20 6,4 C 6,1 C 4,9 C 94 % 1019,1 hPa 0,0 l/m 0 min 0 min 19 W/m 3,2 km/h (1 Bft) 97,87 %
21.12.2020 10:22 6,4 C 6,1 C 4,9 C 94 % 1019,1 hPa 0,0 l/m 0 min 0 min 21 W/m 0,0 km/h (0 Bft) 97,83 %
21.12.2020 10:24 6,4 C 6,1 C 4,9 C 94 % 1019,1 hPa 0,0 l/m 0 min 0 min 19 W/m 0,0 km/h (0 Bft) 97,87 %
21.12.2020 10:26 6,4 C 6,1 C 4,9 C 94 % 1019,0 hPa 0,0 l/m 0 min 0 min 18 W/m 12,9 km/h (3 Bft) 95,74 %
21.12.2020 10:28 6,4 C 6,1 C 4,9 C 94 % 1019,0 hPa 0,0 l/m 0 min 0 min 18 W/m 0,0 km/h (0 Bft) 95,74 %
21.12.2020 10:30 6,5 C 6,1 C 4,9 C 94 % 1019,0 hPa 0,0 l/m 0 min 0 min 18 W/m 3,2 km/h (1 Bft) 97,87 %
21.12.2020 10:32 6,5 C 6,1 C 4,9 C 94 % 1018,9 hPa 0,0 l/m 0 min 0 min 19 W/m 3,2 km/h (1 Bft) 97,83 %
21.12.2020 10:34 6,5 C 6,1 C 4,9 C 94 % 1018,9 hPa 0,0 l/m 0 min 0 min 19 W/m 0,0 km/h (0 Bft) 97,87 %
21.12.2020 10:36 6,5 C 6,1 C 4,9 C 94 % 1018,8 hPa 0,0 l/m 0 min 0 min 19 W/m 12,9 km/h (3 Bft) 95,74 %
21.12.2020 10:38 6,5 C 6,1 C 4,9 C 94 % 1018,8 hPa 0,0 l/m 0 min 0 min 22 W/m 0,0 km/h (0 Bft) 95,35 %
21.12.2020 10:40 6,6 C 6,1 C 4,9 C 94 % 1018,8 hPa 0,0 l/m 0 min 0 min 24 W/m 3,2 km/h (1 Bft) 98,00 %
21.12.2020 10:42 6,6 C 6,1 C 4,9 C 94 % 1018,9 hPa 0,0 l/m 0 min 0 min 25 W/m 0,0 km/h (0 Bft) 95,74 %
21.12.2020 10:44 6,6 C 6,7 C 4,9 C 94 % 1018,8 hPa 0,0 l/m 0 min 0 min 26 W/m 12,9 km/h (3 Bft) 97,87 %
21.12.2020 10:46 6,7 C 6,7 C 4,9 C 94 % 1018,9 hPa 0,0 l/m 0 min 0 min 29 W/m 0,0 km/h (0 Bft) 95,65 %
21.12.2020 10:48 6,8 C 6,7 C 4,9 C 94 % 1018,8 hPa 0,0 l/m 0 min 0 min 32 W/m 19,3 km/h (3 Bft) 93,62 %
21.12.2020 10:50 6,8 C 6,7 C 4,9 C 94 % 1018,8 hPa 0,0 l/m 0 min 0 min 35 W/m 6,4 km/h (2 Bft) 97,87 %
21.12.2020 10:52 6,8 C 6,7 C 4,9 C 94 % 1018,8 hPa 0,0 l/m 0 min 0 min 38 W/m 19,3 km/h (3 Bft) 95,74 %
21.12.2020 10:54 6,8 C 6,7 C 4,9 C 94 % 1018,7 hPa 0,0 l/m 0 min 0 min 39 W/m 0,0 km/h (0 Bft) 97,87 %
21.12.2020 10:56 6,8 C 6,7 C 4,9 C 94 % 1018,8 hPa 0,0 l/m 0 min 0 min 40 W/m 3,2 km/h (1 Bft) 95,74 %
21.12.2020 10:58 6,9 C 6,7 C 4,9 C 94 % 1018,7 hPa 0,0 l/m 0 min 0 min 40 W/m 3,2 km/h (1 Bft) 97,83 %
21.12.2020 11:00 6,9 C 6,7 C 4,9 C 94 % 1018,6 hPa 0,0 l/m 0 min 0 min 39 W/m 0,0 km/h (0 Bft) 97,92 %
21.12.2020 11:02 6,9 C 6,7 C 4,9 C 94 % 1018,6 hPa 0,0 l/m 0 min 0 min 40 W/m 0,0 km/h (0 Bft) 95,74 %
21.12.2020 11:04 6,9 C 6,7 C 4,9 C 94 % 1018,6 hPa 0,0 l/m 0 min 0 min 35 W/m 3,2 km/h (1 Bft) 97,87 %
21.12.2020 11:06 6,9 C 6,7 C 4,9 C 94 % 1018,6 hPa 0,0 l/m 0 min 0 min 36 W/m 0,0 km/h (0 Bft) 95,74 %
21.12.2020 11:08 7,0 C 6,7 C 5,5 C 94 % 1018,6 hPa 0,0 l/m 0 min 0 min 44 W/m 0,0 km/h (0 Bft) 95,65 %
21.12.2020 11:10 7,0 C 6,7 C 5,5 C 94 % 1018,5 hPa 0,0 l/m 0 min 0 min 56 W/m 0,0 km/h (0 Bft) 97,87 %
21.12.2020 11:12 7,0 C 6,7 C 5,5 C 94 % 1018,5 hPa 0,0 l/m 0 min 0 min 66 W/m 3,2 km/h (1 Bft) 100,00 %
21.12.2020 11:14 7,0 C 6,7 C 5,5 C 94 % 1018,4 hPa 0,0 l/m 0 min 0 min 70 W/m 0,0 km/h (0 Bft) 100,00 %
21.12.2020 11:16 7,0 C 6,7 C 5,5 C 94 % 1018,4 hPa 0,0 l/m 0 min 2 min 75 W/m 0,0 km/h (0 Bft) 100,00 %
21.12.2020 11:18 7,1 C 7,2 C 5,5 C 94 % 1018,3 hPa 0,0 l/m 0 min 2 min 77 W/m 0,0 km/h (0 Bft) 100,00 %
21.12.2020 11:20 7,1 C 7,2 C 5,5 C 94 % 1018,2 hPa 0,0 l/m 0 min 0 min 79 W/m 0,0 km/h (0 Bft) 100,00 %
21.12.2020 11:22 7,1 C 7,2 C 5,5 C 94 % 1018,3 hPa 0,0 l/m 0 min 0 min 77 W/m 0,0 km/h (0 Bft) 100,00 %
21.12.2020 11:24 7,1 C 7,2 C 5,5 C 94 % 1018,2 hPa 0,0 l/m 0 min 0 min 75 W/m 3,2 km/h (1 Bft) 100,00 %
21.12.2020 11:26 7,2 C 7,2 C 5,5 C 94 % 1018,2 hPa 0,0 l/m 0 min 2 min 76 W/m 0,0 km/h (0 Bft) 100,00 %
21.12.2020 11:28 7,2 C 7,2 C 5,5 C 94 % 1018,1 hPa 0,0 l/m 0 min 0 min 81 W/m 12,9 km/h (3 Bft) 97,87 %
21.12.2020 11:30 7,3 C 7,2 C 6,1 C 94 % 1018,0 hPa 0,0 l/m 0 min 2 min 88 W/m 0,0 km/h (0 Bft) 100,00 %
21.12.2020 11:32 7,3 C 7,2 C 6,1 C 94 % 1018,0 hPa 0,0 l/m 0 min 2 min 90 W/m 12,9 km/h (3 Bft) 100,00 %
21.12.2020 11:34 7,3 C 7,2 C 6,1 C 94 % 1018,0 hPa 0,0 l/m 0 min 0 min 91 W/m 3,2 km/h (1 Bft) 100,00 %
21.12.2020 11:36 7,4 C 7,2 C 6,1 C 94 % 1017,9 hPa 0,0 l/m 0 min 2 min 87 W/m 16,1 km/h (3 Bft) 97,87 %
21.12.2020 11:38 7,4 C 7,2 C 6,1 C 94 % 1017,8 hPa 0,0 l/m 0 min 0 min 77 W/m 0,0 km/h (0 Bft) 100,00 %
21.12.2020 11:40 7,4 C 7,2 C 6,1 C 94 % 1017,9 hPa 0,0 l/m 0 min 2 min 73 W/m 0,0 km/h (0 Bft) 95,74 %
21.12.2020 11:42 7,4 C 7,2 C 6,1 C 94 % 1017,7 hPa 0,0 l/m 0 min 2 min 73 W/m 3,2 km/h (1 Bft) 100,00 %
21.12.2020 11:44 7,5 C 7,2 C 6,1 C 94 % 1017,7 hPa 0,0 l/m 0 min 0 min 74 W/m 0,0 km/h (0 Bft) 95,74 %
21.12.2020 11:46 7,5 C 7,2 C 6,1 C 94 % 1017,7 hPa 0,0 l/m 0 min 0 min 76 W/m 3,2 km/h (1 Bft) 100,00 %
21.12.2020 11:48 7,5 C 7,2 C 6,1 C 94 % 1017,6 hPa 0,0 l/m 0 min 0 min 76 W/m 6,4 km/h (2 Bft) 100,00 %
21.12.2020 11:50 7,5 C 7,2 C 6,1 C 94 % 1017,5 hPa 0,0 l/m 0 min 0 min 74 W/m 6,4 km/h (2 Bft) 97,92 %
21.12.2020 11:52 7,5 C 7,2 C 6,1 C 94 % 1017,5 hPa 0,0 l/m 0 min 2 min 68 W/m 3,2 km/h (1 Bft) 97,87 %
21.12.2020 11:54 7,6 C 7,2 C 6,1 C 94 % 1017,5 hPa 0,0 l/m 0 min 0 min 64 W/m 0,0 km/h (0 Bft) 100,00 %
21.12.2020 11:56 7,6 C 7,2 C 6,1 C 94 % 1017,4 hPa 0,0 l/m 0 min 0 min 63 W/m 3,2 km/h (1 Bft) 100,00 %
21.12.2020 11:58 7,6 C 7,2 C 6,1 C 94 % 1017,4 hPa 0,0 l/m 0 min 2 min 58 W/m 0,0 km/h (0 Bft) 100,00 %
21.12.2020 12:00 7,6 C 7,2 C 6,1 C 94 % 1017,4 hPa 0,0 l/m 0 min 2 min 50 W/m 0,0 km/h (0 Bft) 97,87 %
21.12.2020 12:02 7,6 C 7,2 C 6,1 C 94 % 1017,4 hPa 0,0 l/m 0 min 2 min 44 W/m 3,2 km/h (1 Bft) 97,87 %
21.12.2020 12:04 7,6 C 7,2 C 6,1 C 94 % 1017,3 hPa 0,0 l/m 0 min 2 min 40 W/m 0,0 km/h (0 Bft) 97,87 %
21.12.2020 12:08 7,7 C 6,7 C 5,5 C 94 % 1017,2 hPa 0,0 l/m 0 min 4 min 36 W/m 6,4 km/h (2 Bft) 97,87 %
21.12.2020 12:10 7,7 C 6,7 C 5,5 C 94 % 1017,2 hPa 0,0 l/m 0 min 2 min 31 W/m 0,0 km/h (0 Bft) 97,87 %
21.12.2020 12:12 7,7 C 6,7 C 5,5 C 94 % 1017,2 hPa 0,0 l/m 0 min 0 min 30 W/m 6,4 km/h (2 Bft) 95,74 %
21.12.2020 12:14 7,7 C 6,7 C 5,5 C 94 % 1017,2 hPa 0,0 l/m 0 min 2 min 28 W/m 12,9 km/h (3 Bft) 97,87 %
21.12.2020 12:16 7,7 C 6,7 C 5,5 C 94 % 1017,2 hPa 0,0 l/m 0 min 2 min 26 W/m 3,2 km/h (1 Bft) 97,87 %
21.12.2020 12:18 7,8 C 6,7 C 5,5 C 94 % 1017,2 hPa 0,0 l/m 0 min 2 min 26 W/m 0,0 km/h (0 Bft) 97,87 %
21.12.2020 12:20 7,8 C 6,7 C 5,5 C 94 % 1017,1 hPa 0,0 l/m 0 min 2 min 26 W/m 0,0 km/h (0 Bft) 97,83 %
21.12.2020 12:22 7,8 C 6,7 C 5,5 C 94 % 1017,0 hPa 0,0 l/m 0 min 2 min 25 W/m 3,2 km/h (1 Bft) 97,87 %
21.12.2020 12:24 7,8 C 6,7 C 5,5 C 94 % 1017,0 hPa 0,2 l/m 0 min 2 min 24 W/m 3,2 km/h (1 Bft) 97,87 %
21.12.2020 12:26 7,8 C 6,7 C 4,9 C 94 % 1016,9 hPa 0,0 l/m 0 min 2 min 23 W/m 3,2 km/h (1 Bft) 97,87 %
21.12.2020 12:28 7,8 C 6,7 C 4,9 C 94 % 1016,8 hPa 0,0 l/m 0 min 2 min 23 W/m 0,0 km/h (0 Bft) 97,87 %
21.12.2020 12:30 7,8 C 6,7 C 4,9 C 94 % 1016,7 hPa 0,0 l/m 0 min 2 min 24 W/m 0,0 km/h (0 Bft) 97,83 %
21.12.2020 12:32 7,8 C 6,7 C 4,9 C 94 % 1016,7 hPa 0,0 l/m 0 min 2 min 25 W/m 3,2 km/h (1 Bft) 95,74 %
21.12.2020 12:34 7,8 C 6,7 C 4,9 C 94 % 1016,7 hPa 0,0 l/m 0 min 2 min 30 W/m 16,1 km/h (3 Bft) 95,74 %
21.12.2020 12:36 7,7 C 6,7 C 4,9 C 94 % 1016,6 hPa 0,0 l/m 0 min 0 min 35 W/m 9,7 km/h (2 Bft) 97,87 %
21.12.2020 12:38 7,7 C 6,7 C 5,5 C 94 % 1016,6 hPa 0,0 l/m 0 min 0 min 37 W/m 0,0 km/h (0 Bft) 97,87 %
21.12.2020 12:40 7,8 C 6,7 C 5,5 C 94 % 1016,5 hPa 0,0 l/m 0 min 0 min 39 W/m 0,0 km/h (0 Bft) 94,44 %
21.12.2020 12:42 7,8 C 6,7 C 5,5 C 94 % 1016,5 hPa 0,0 l/m 0 min 0 min 40 W/m 0,0 km/h (0 Bft) 97,83 %
21.12.2020 12:44 7,8 C 6,7 C 5,5 C 94 % 1016,4 hPa 0,0 l/m 0 min 0 min 42 W/m 3,2 km/h (1 Bft) 97,87 %
21.12.2020 12:46 7,8 C 6,7 C 5,5 C 94 % 1016,4 hPa 0,0 l/m 0 min 0 min 42 W/m 0,0 km/h (0 Bft) 95,74 %
21.12.2020 12:48 7,8 C 6,7 C 5,5 C 94 % 1016,4 hPa 0,0 l/m 0 min 2 min 39 W/m 0,0 km/h (0 Bft) 100,00 %
21.12.2020 12:50 7,8 C 6,7 C 5,5 C 94 % 1016,4 hPa 0,0 l/m 0 min 2 min 39 W/m 0,0 km/h (0 Bft) 100,00 %
21.12.2020 12:52 7,8 C 6,7 C 5,5 C 94 % 1016,4 hPa 0,0 l/m 0 min 2 min 42 W/m 3,2 km/h (1 Bft) 100,00 %
21.12.2020 12:54 7,8 C 6,7 C 5,5 C 94 % 1016,3 hPa 0,0 l/m 0 min 2 min 42 W/m 19,3 km/h (3 Bft) 100,00 %
21.12.2020 12:56 7,8 C 6,7 C 5,5 C 94 % 1016,2 hPa 0,0 l/m 0 min 2 min 42 W/m 0,0 km/h (0 Bft) 100,00 %
21.12.2020 12:58 7,9 C 6,7 C 5,5 C 94 % 1016,2 hPa 0,0 l/m 0 min 0 min 44 W/m 0,0 km/h (0 Bft) 100,00 %
21.12.2020 13:00 7,9 C 6,7 C 5,5 C 94 % 1016,1 hPa 0,0 l/m 0 min 0 min 47 W/m 3,2 km/h (1 Bft) 100,00 %
21.12.2020 13:02 7,9 C 6,7 C 5,5 C 94 % 1016,1 hPa 0,0 l/m 0 min 0 min 47 W/m 6,4 km/h (2 Bft) 100,00 %
21.12.2020 13:04 7,9 C 6,7 C 5,5 C 94 % 1016,1 hPa 0,0 l/m 0 min 2 min 47 W/m 12,9 km/h (3 Bft) 100,00 %
21.12.2020 13:06 7,9 C 6,7 C 5,5 C 94 % 1016,1 hPa 0,0 l/m 0 min 2 min 46 W/m 0,0 km/h (0 Bft) 97,83 %
21.12.2020 13:08 7,9 C 6,7 C 5,5 C 94 % 1016,1 hPa 0,0 l/m 0 min 2 min 44 W/m 9,7 km/h (2 Bft) 97,87 %
21.12.2020 13:10 7,9 C 6,7 C 5,5 C 94 % 1016,1 hPa 0,0 l/m 0 min 2 min 42 W/m 0,0 km/h (0 Bft) 97,87 %
21.12.2020 13:12 8,0 C 6,7 C 5,5 C 94 % 1016,1 hPa 0,2 l/m 0 min 2 min 42 W/m 3,2 km/h (1 Bft) 97,87 %
21.12.2020 13:14 8,0 C 6,7 C 5,5 C 94 % 1016,1 hPa 0,0 l/m 0 min 2 min 38 W/m 12,9 km/h (3 Bft) 95,74 %
21.12.2020 13:16 8,0 C 6,7 C 5,5 C 95 % 1016,1 hPa 0,0 l/m 0 min 2 min 32 W/m 12,9 km/h (3 Bft) 97,87 %
21.12.2020 13:18 8,0 C 6,7 C 5,5 C 95 % 1016,1 hPa 0,0 l/m 0 min 2 min 32 W/m 3,2 km/h (1 Bft) 97,83 %
21.12.2020 13:20 8,0 C 6,7 C 5,5 C 95 % 1015,9 hPa 0,0 l/m 0 min 2 min 31 W/m 25,7 km/h (4 Bft) 97,87 %
21.12.2020 13:22 8,0 C 6,7 C 5,5 C 95 % 1015,9 hPa 0,0 l/m 0 min 2 min 28 W/m 3,2 km/h (1 Bft) 95,74 %
21.12.2020 13:24 8,0 C 6,7 C 5,5 C 95 % 1015,8 hPa 0,0 l/m 0 min 2 min 24 W/m 3,2 km/h (1 Bft) 97,87 %
21.12.2020 13:26 8,0 C 6,7 C 5,5 C 95 % 1015,9 hPa 0,0 l/m 0 min 2 min 18 W/m 0,0 km/h (0 Bft) 97,87 %
21.12.2020 13:28 8,0 C 6,7 C 5,5 C 95 % 1015,8 hPa 0,0 l/m 0 min 2 min 14 W/m 9,7 km/h (2 Bft) 95,74 %
21.12.2020 13:30 8,0 C 6,7 C 5,5 C 95 % 1015,7 hPa 0,0 l/m 0 min 2 min 11 W/m 0,0 km/h (0 Bft) 97,83 %
21.12.2020 13:32 8,0 C 6,7 C 5,5 C 95 % 1015,7 hPa 0,0 l/m 0 min 2 min 11 W/m 6,4 km/h (2 Bft) 91,49 %
21.12.2020 13:34 8,0 C 6,7 C 5,5 C 95 % 1015,6 hPa 0,0 l/m 0 min 2 min 12 W/m 16,1 km/h (3 Bft) 97,87 %
21.12.2020 13:36 8,0 C 6,7 C 5,5 C 95 % 1015,6 hPa 0,0 l/m 0 min 2 min 16 W/m 6,4 km/h (2 Bft) 97,87 %
21.12.2020 13:38 8,0 C 6,7 C 5,5 C 95 % 1015,6 hPa 0,2 l/m 0 min 2 min 19 W/m 3,2 km/h (1 Bft) 97,87 %
21.12.2020 13:40 8,0 C 6,7 C 5,5 C 95 % 1015,6 hPa 0,0 l/m 0 min 2 min 22 W/m 6,4 km/h (2 Bft) 95,74 %
21.12.2020 13:42 8,0 C 6,7 C 5,5 C 95 % 1015,6 hPa 0,0 l/m 0 min 2 min 24 W/m 0,0 km/h (0 Bft) 95,65 %
21.12.2020 13:44 8,0 C 6,7 C 5,5 C 95 % 1015,6 hPa 0,0 l/m 0 min 2 min 22 W/m 12,9 km/h (3 Bft) 97,87 %
21.12.2020 13:46 8,0 C 6,7 C 5,5 C 95 % 1015,6 hPa 0,2 l/m 0 min 2 min 19 W/m 0,0 km/h (0 Bft) 97,87 %
21.12.2020 13:48 8,0 C 6,7 C 5,5 C 95 % 1015,5 hPa 0,0 l/m 0 min 2 min 16 W/m 0,0 km/h (0 Bft) 97,87 %
21.12.2020 13:50 8,0 C 6,7 C 5,5 C 95 % 1015,4 hPa 0,0 l/m 0 min 2 min 16 W/m 0,0 km/h (0 Bft) 93,62 %
21.12.2020 13:52 8,0 C 6,7 C 5,5 C 95 % 1015,4 hPa 0,0 l/m 0 min 2 min 17 W/m 0,0 km/h (0 Bft) 97,87 %
21.12.2020 13:54 8,0 C 6,7 C 5,5 C 95 % 1015,3 hPa 0,0 l/m 0 min 2 min 19 W/m 3,2 km/h (1 Bft) 97,83 %
21.12.2020 13:56 8,0 C 6,7 C 5,5 C 95 % 1015,3 hPa 0,0 l/m 0 min 2 min 20 W/m 3,2 km/h (1 Bft) 100,00 %
21.12.2020 13:58 7,9 C 6,7 C 5,5 C 95 % 1015,2 hPa 0,2 l/m 0 min 2 min 19 W/m 0,0 km/h (0 Bft) 100,00 %
21.12.2020 14:00 7,9 C 6,7 C 5,5 C 95 % 1015,2 hPa 0,0 l/m 0 min 0 min 19 W/m 16,1 km/h (3 Bft) 100,00 %
21.12.2020 14:02 7,9 C 6,7 C 5,5 C 95 % 1015,2 hPa 0,0 l/m 0 min 2 min 19 W/m 12,9 km/h (3 Bft) 100,00 %
21.12.2020 14:04 7,9 C 6,7 C 5,5 C 95 % 1015,1 hPa 0,0 l/m 0 min 2 min 17 W/m 3,2 km/h (1 Bft) 100,00 %
21.12.2020 14:06 7,9 C 6,7 C 5,5 C 95 % 1015,1 hPa 0,0 l/m 0 min 2 min 14 W/m 3,2 km/h (1 Bft) 100,00 %
21.12.2020 14:08 7,9 C 6,7 C 5,5 C 95 % 1015,1 hPa 0,0 l/m 0 min 0 min 14 W/m 12,9 km/h (3 Bft) 100,00 %
21.12.2020 14:10 7,9 C 6,7 C 5,5 C 95 % 1015,0 hPa 0,0 l/m 0 min 0 min 19 W/m 6,4 km/h (2 Bft) 100,00 %
21.12.2020 14:12 7,9 C 6,7 C 5,5 C 96 % 1015,0 hPa 0,0 l/m 0 min 2 min 22 W/m 0,0 km/h (0 Bft) 97,87 %
21.12.2020 14:14 7,9 C 6,7 C 5,5 C 96 % 1015,0 hPa 0,0 l/m 0 min 2 min 25 W/m 0,0 km/h (0 Bft) 97,87 %
21.12.2020 14:16 7,9 C 6,7 C 5,5 C 96 % 1014,9 hPa 0,0 l/m 0 min 2 min 26 W/m 16,1 km/h (3 Bft) 100,00 %
21.12.2020 14:18 7,8 C 6,7 C 5,5 C 96 % 1014,8 hPa 0,0 l/m 0 min 2 min 26 W/m 16,1 km/h (3 Bft) 97,87 %
21.12.2020 14:20 7,8 C 6,7 C 5,5 C 96 % 1014,8 hPa 0,0 l/m 0 min 2 min 26 W/m 19,3 km/h (3 Bft) 93,62 %
21.12.2020 14:22 7,8 C 6,7 C 5,5 C 96 % 1014,8 hPa 0,0 l/m 0 min 2 min 25 W/m 16,1 km/h (3 Bft) 95,74 %
21.12.2020 14:24 7,8 C 6,7 C 5,5 C 96 % 1014,8 hPa 0,2 l/m 0 min 2 min 26 W/m 0,0 km/h (0 Bft) 100,00 %
21.12.2020 14:26 7,8 C 6,7 C 5,5 C 96 % 1014,7 hPa 0,0 l/m 0 min 2 min 29 W/m 0,0 km/h (0 Bft) 100,00 %
21.12.2020 14:28 7,8 C 6,7 C 5,5 C 96 % 1014,6 hPa 0,0 l/m 0 min 2 min 30 W/m 16,1 km/h (3 Bft) 100,00 %
21.12.2020 14:30 7,8 C 6,7 C 5,5 C 96 % 1014,5 hPa 0,0 l/m 0 min 2 min 30 W/m 16,1 km/h (3 Bft) 97,87 %
21.12.2020 14:32 7,8 C 6,7 C 5,5 C 96 % 1014,4 hPa 0,0 l/m 0 min 2 min 29 W/m 3,2 km/h (1 Bft) 100,00 %
21.12.2020 14:34 7,8 C 6,7 C 5,5 C 96 % 1014,4 hPa 0,0 l/m 0 min 2 min 26 W/m 0,0 km/h (0 Bft) 100,00 %
21.12.2020 14:36 7,8 C 6,7 C 5,5 C 96 % 1014,3 hPa 0,0 l/m 0 min 2 min 23 W/m 12,9 km/h (3 Bft) 95,74 %
21.12.2020 14:38 7,8 C 6,7 C 5,5 C 96 % 1014,3 hPa 0,0 l/m 0 min 2 min 24 W/m 9,7 km/h (2 Bft) 97,87 %
21.12.2020 14:40 7,8 C 6,7 C 5,5 C 96 % 1014,1 hPa 0,2 l/m 0 min 2 min 26 W/m 0,0 km/h (0 Bft) 62,26 %
21.12.2020 14:42 7,8 C 6,7 C 5,5 C 96 % 1014,1 hPa 0,0 l/m 0 min 2 min 25 W/m 3,2 km/h (1 Bft) 97,92 %
21.12.2020 14:44 7,8 C 6,7 C 5,5 C 96 % 1014,2 hPa 0,0 l/m 0 min 2 min 22 W/m 19,3 km/h (3 Bft) 97,44 %
21.12.2020 14:46 7,8 C 6,7 C 5,5 C 96 % 1014,1 hPa 0,0 l/m 0 min 2 min 18 W/m 3,2 km/h (1 Bft) 97,87 %
21.12.2020 14:48 7,8 C 6,7 C 5,5 C 96 % 1014,1 hPa 0,0 l/m 0 min 2 min 18 W/m 0,0 km/h (0 Bft) 97,87 %
21.12.2020 14:50 7,8 C 6,7 C 5,5 C 96 % 1014,0 hPa 0,0 l/m 0 min 2 min 18 W/m 3,2 km/h (1 Bft) 95,74 %
21.12.2020 14:52 7,8 C 6,7 C 5,5 C 97 % 1013,9 hPa 0,0 l/m 0 min 2 min 16 W/m 12,9 km/h (3 Bft) 97,83 %
21.12.2020 14:54 7,8 C 6,7 C 5,5 C 97 % 1013,9 hPa 0,0 l/m 0 min 2 min 16 W/m 6,4 km/h (2 Bft) 97,87 %
21.12.2020 14:56 7,8 C 6,7 C 5,5 C 97 % 1013,9 hPa 0,0 l/m 0 min 2 min 15 W/m 0,0 km/h (0 Bft) 95,74 %
21.12.2020 14:58 7,7 C 6,7 C 5,5 C 97 % 1013,9 hPa 0,0 l/m 0 min 2 min 12 W/m 3,2 km/h (1 Bft) 97,87 %
21.12.2020 15:00 7,7 C 6,7 C 5,5 C 97 % 1013,7 hPa 0,0 l/m 0 min 2 min 10 W/m 0,0 km/h (0 Bft) 95,74 %
21.12.2020 15:02 7,7 C 6,7 C 5,5 C 97 % 1013,7 hPa 0,0 l/m 0 min 2 min 7 W/m 0,0 km/h (0 Bft) 95,65 %
21.12.2020 15:04 7,7 C 6,7 C 5,5 C 97 % 1013,7 hPa 0,0 l/m 0 min 2 min 8 W/m 22,5 km/h (4 Bft) 97,87 %
21.12.2020 15:06 7,7 C 6,7 C 5,5 C 97 % 1013,7 hPa 0,2 l/m 0 min 2 min 12 W/m 16,1 km/h (3 Bft) 95,74 %
21.12.2020 15:08 7,7 C 6,7 C 5,5 C 97 % 1013,7 hPa 0,0 l/m 0 min 2 min 12 W/m 6,4 km/h (2 Bft) 97,87 %
21.12.2020 15:10 7,7 C 6,7 C 5,5 C 97 % 1013,6 hPa 0,2 l/m 0 min 2 min 13 W/m 16,1 km/h (3 Bft) 97,87 %
21.12.2020 15:12 7,7 C 6,7 C 5,5 C 97 % 1013,6 hPa 0,0 l/m 0 min 2 min 12 W/m 3,2 km/h (1 Bft) 97,87 %
21.12.2020 15:14 7,7 C 6,7 C 5,5 C 97 % 1013,6 hPa 0,0 l/m 0 min 2 min 12 W/m 19,3 km/h (3 Bft) 97,83 %
21.12.2020 15:16 7,7 C 6,7 C 5,5 C 97 % 1013,6 hPa 0,0 l/m 0 min 2 min 11 W/m 22,5 km/h (4 Bft) 97,87 %
21.12.2020 15:18 7,7 C 6,7 C 5,5 C 97 % 1013,6 hPa 0,0 l/m 0 min 2 min 9 W/m 16,1 km/h (3 Bft) 97,87 %
21.12.2020 15:20 7,7 C 6,7 C 5,5 C 97 % 1013,5 hPa 0,2 l/m 0 min 2 min 7 W/m 6,4 km/h (2 Bft) 100,00 %
21.12.2020 15:22 7,7 C 6,7 C 5,5 C 97 % 1013,5 hPa 0,0 l/m 0 min 2 min 7 W/m 3,2 km/h (1 Bft) 100,00 %
21.12.2020 15:24 7,7 C 6,7 C 5,5 C 97 % 1013,5 hPa 0,0 l/m 0 min 0 min 7 W/m 0,0 km/h (0 Bft) 100,00 %
21.12.2020 15:26 7,7 C 6,7 C 5,5 C 97 % 1013,5 hPa 0,0 l/m 0 min 0 min 7 W/m 16,1 km/h (3 Bft) 100,00 %
21.12.2020 15:28 7,7 C 6,7 C 5,5 C 97 % 1013,5 hPa 0,0 l/m 0 min 0 min 7 W/m 12,9 km/h (3 Bft) 97,87 %
21.12.2020 15:30 7,7 C 6,7 C 5,5 C 97 % 1013,5 hPa 0,0 l/m 0 min 0 min 8 W/m 19,3 km/h (3 Bft) 97,87 %
21.12.2020 15:32 7,7 C 6,7 C 5,5 C 97 % 1013,4 hPa 0,0 l/m 0 min 2 min 8 W/m 3,2 km/h (1 Bft) 100,00 %
21.12.2020 15:34 7,7 C 6,7 C 5,5 C 97 % 1013,5 hPa 0,0 l/m 0 min 0 min 7 W/m 0,0 km/h (0 Bft) 97,87 %
21.12.2020 15:36 7,7 C 6,7 C 5,5 C 97 % 1013,5 hPa 0,0 l/m 0 min 0 min 6 W/m 32,2 km/h (5 Bft) 97,83 %
21.12.2020 15:38 7,7 C 6,7 C 5,5 C 97 % 1013,4 hPa 0,0 l/m 0 min 0 min 5 W/m 22,5 km/h (4 Bft) 97,87 %
21.12.2020 15:40 7,7 C 6,7 C 5,5 C 97 % 1013,2 hPa 0,0 l/m 0 min 0 min 7 W/m 0,0 km/h (0 Bft) 97,87 %
21.12.2020 15:42 7,6 C 6,7 C 5,5 C 97 % 1013,1 hPa 0,0 l/m 0 min 0 min 7 W/m 0,0 km/h (0 Bft) 97,87 %
21.12.2020 15:44 7,6 C 6,7 C 5,5 C 97 % 1013,1 hPa 0,0 l/m 0 min 0 min 9 W/m 16,1 km/h (3 Bft) 97,87 %
21.12.2020 15:46 7,6 C 6,7 C 5,5 C 97 % 1013,0 hPa 0,0 l/m 0 min 2 min 11 W/m 19,3 km/h (3 Bft) 98,18 %
21.12.2020 15:48 7,6 C 6,7 C 5,5 C 97 % 1012,9 hPa 0,0 l/m 0 min 0 min 10 W/m 12,9 km/h (3 Bft) 97,87 %
21.12.2020 15:50 7,6 C 6,7 C 5,5 C 97 % 1012,9 hPa 0,0 l/m 0 min 0 min 8 W/m 0,0 km/h (0 Bft) 97,83 %
21.12.2020 15:52 7,6 C 6,7 C 5,5 C 97 % 1012,9 hPa 0,0 l/m 0 min 2 min 7 W/m 0,0 km/h (0 Bft) 97,87 %
21.12.2020 15:54 7,6 C 6,7 C 5,5 C 97 % 1012,9 hPa 0,0 l/m 0 min 2 min 6 W/m 0,0 km/h (0 Bft) 93,62 %
21.12.2020 15:56 7,6 C 6,7 C 5,5 C 97 % 1012,8 hPa 0,0 l/m 0 min 2 min 7 W/m 0,0 km/h (0 Bft) 97,87 %
21.12.2020 15:58 7,6 C 6,7 C 5,5 C 97 % 1012,8 hPa 0,0 l/m 0 min 2 min 7 W/m 19,3 km/h (3 Bft) 95,74 %
21.12.2020 16:00 7,6 C 6,7 C 5,5 C 97 % 1012,8 hPa 0,2 l/m 0 min 2 min 7 W/m 22,5 km/h (4 Bft) 95,65 %
21.12.2020 16:02 7,6 C 6,7 C 5,5 C 98 % 1012,8 hPa 0,0 l/m 0 min 2 min 5 W/m 6,4 km/h (2 Bft) 91,49 %
21.12.2020 16:04 7,6 C 6,7 C 5,5 C 98 % 1012,8 hPa 0,0 l/m 0 min 2 min 5 W/m 3,2 km/h (1 Bft) 95,74 %
21.12.2020 16:06 7,6 C 6,7 C 5,5 C 98 % 1012,8 hPa 0,0 l/m 0 min 0 min 0 W/m 9,7 km/h (2 Bft) 78,72 %
21.12.2020 16:08 7,6 C 6,7 C 5,5 C 98 % 1012,9 hPa 0,0 l/m 0 min 0 min 0 W/m 19,3 km/h (3 Bft) 67,39 %
21.12.2020 16:10 7,6 C 6,7 C 5,5 C 98 % 1012,9 hPa 0,0 l/m 0 min 0 min 0 W/m 0,0 km/h (0 Bft) 95,74 %
21.12.2020 16:12 7,6 C 6,7 C 5,5 C 98 % 1012,8 hPa 0,0 l/m 0 min 0 min 0 W/m 3,2 km/h (1 Bft) 95,65 %
21.12.2020 16:14 7,6 C 6,7 C 5,5 C 98 % 1012,8 hPa 0,0 l/m 0 min 0 min 0 W/m 0,0 km/h (0 Bft) 95,74 %
21.12.2020 16:16 7,6 C 6,7 C 5,5 C 98 % 1012,7 hPa 0,0 l/m 0 min 0 min 0 W/m 0,0 km/h (0 Bft) 95,74 %
21.12.2020 16:18 7,6 C 6,7 C 5,5 C 98 % 1012,6 hPa 0,0 l/m 0 min 0 min 0 W/m 12,9 km/h (3 Bft) 95,74 %
21.12.2020 16:20 7,6 C 6,7 C 5,5 C 98 % 1012,6 hPa 0,0 l/m 0 min 0 min 0 W/m 19,3 km/h (3 Bft) 95,74 %
21.12.2020 16:22 7,6 C 6,7 C 5,5 C 98 % 1012,5 hPa 0,0 l/m 0 min 0 min 0 W/m 12,9 km/h (3 Bft) 93,62 %
21.12.2020 16:24 7,6 C 6,7 C 5,5 C 98 % 1012,5 hPa 0,0 l/m 0 min 0 min 0 W/m 16,1 km/h (3 Bft) 95,65 %
21.12.2020 16:26 7,6 C 6,7 C 5,5 C 98 % 1012,5 hPa 0,0 l/m 0 min 0 min 0 W/m 19,3 km/h (3 Bft) 97,87 %
21.12.2020 16:28 7,6 C 6,7 C 5,5 C 98 % 1012,5 hPa 0,0 l/m 0 min 2 min 0 W/m 16,1 km/h (3 Bft) 95,74 %
21.12.2020 16:30 7,6 C 6,7 C 5,5 C 98 % 1012,4 hPa 0,0 l/m 0 min 0 min 0 W/m 6,4 km/h (2 Bft) 95,74 %
21.12.2020 16:32 7,6 C 6,7 C 5,5 C 98 % 1012,3 hPa 0,0 l/m 0 min 2 min 0 W/m 9,7 km/h (2 Bft) 95,74 %
21.12.2020 16:34 7,6 C 6,7 C 5,5 C 98 % 1012,3 hPa 0,0 l/m 0 min 2 min 0 W/m 6,4 km/h (2 Bft) 95,74 %
21.12.2020 16:36 7,6 C 6,7 C 5,5 C 98 % 1012,2 hPa 0,0 l/m 0 min 2 min 0 W/m 3,2 km/h (1 Bft) 95,74 %
21.12.2020 16:38 7,6 C 6,7 C 5,5 C 98 % 1012,1 hPa 0,0 l/m 0 min 2 min 0 W/m 6,4 km/h (2 Bft) 93,62 %
21.12.2020 16:40 7,6 C 6,7 C 5,5 C 98 % 1012,0 hPa 0,2 l/m 0 min 2 min 0 W/m 22,5 km/h (4 Bft) 94,74 %
21.12.2020 16:42 7,6 C 6,7 C 5,5 C 98 % 1012,0 hPa 0,0 l/m 0 min 2 min 0 W/m 3,2 km/h (1 Bft) 95,74 %
21.12.2020 16:44 7,6 C 6,7 C 5,5 C 98 % 1012,1 hPa 0,0 l/m 0 min 2 min 0 W/m 6,4 km/h (2 Bft) 95,74 %
21.12.2020 16:46 7,6 C 6,7 C 5,5 C 98 % 1012,1 hPa 0,0 l/m 0 min 0 min 0 W/m 16,1 km/h (3 Bft) 95,65 %
21.12.2020 16:48 7,6 C 6,7 C 5,5 C 98 % 1012,0 hPa 0,0 l/m 0 min 2 min 0 W/m 12,9 km/h (3 Bft) 97,87 %
21.12.2020 16:50 7,6 C 6,7 C 5,5 C 98 % 1011,9 hPa 0,0 l/m 0 min 2 min 0 W/m 19,3 km/h (3 Bft) 97,87 %
21.12.2020 16:52 7,6 C 6,7 C 5,5 C 98 % 1011,9 hPa 0,0 l/m 0 min 2 min 0 W/m 6,4 km/h (2 Bft) 96,23 %
21.12.2020 16:54 7,6 C 6,7 C 5,5 C 98 % 1011,9 hPa 0,0 l/m 0 min 0 min 0 W/m 19,3 km/h (3 Bft) 95,92 %
21.12.2020 16:56 7,6 C 6,7 C 5,5 C 98 % 1011,9 hPa 0,0 l/m 0 min 0 min 0 W/m 16,1 km/h (3 Bft) 95,83 %
21.12.2020 16:58 7,6 C 6,7 C 5,5 C 98 % 1011,9 hPa 0,0 l/m 0 min 0 min 0 W/m 19,3 km/h (3 Bft) 97,83 %
21.12.2020 17:00 7,6 C 6,7 C 5,5 C 98 % 1011,9 hPa 0,0 l/m 0 min 0 min 0 W/m 19,3 km/h (3 Bft) 95,74 %
21.12.2020 17:02 7,6 C 6,7 C 5,5 C 98 % 1012,0 hPa 0,0 l/m 0 min 0 min 0 W/m 16,1 km/h (3 Bft) 97,87 %
21.12.2020 17:04 7,6 C 6,7 C 5,5 C 98 % 1011,9 hPa 0,0 l/m 0 min 0 min 0 W/m 6,4 km/h (2 Bft) 97,87 %
21.12.2020 17:06 7,6 C 6,7 C 5,5 C 98 % 1011,9 hPa 0,0 l/m 0 min 0 min 0 W/m 3,2 km/h (1 Bft) 95,74 %
21.12.2020 17:08 7,6 C 6,7 C 5,5 C 98 % 1011,9 hPa 0,0 l/m 0 min 2 min 0 W/m 6,4 km/h (2 Bft) 97,87 %
21.12.2020 17:10 7,6 C 6,7 C 5,5 C 98 % 1012,0 hPa 0,0 l/m 0 min 2 min 0 W/m 3,2 km/h (1 Bft) 97,30 %
21.12.2020 17:12 7,6 C 6,7 C 5,5 C 98 % 1012,0 hPa 0,2 l/m 0 min 2 min 0 W/m 0,0 km/h (0 Bft) 93,62 %
21.12.2020 17:14 7,6 C 6,7 C 5,5 C 98 % 1012,0 hPa 0,0 l/m 0 min 2 min 0 W/m 16,1 km/h (3 Bft) 95,74 %
21.12.2020 17:16 7,6 C 6,7 C 5,5 C 98 % 1012,0 hPa 0,0 l/m 0 min 2 min 0 W/m 12,9 km/h (3 Bft) 95,74 %
21.12.2020 17:18 7,6 C 6,7 C 5,5 C 98 % 1011,9 hPa 0,0 l/m 0 min 2 min 0 W/m 12,9 km/h (3 Bft) 95,74 %
21.12.2020 17:20 7,6 C 6,7 C 5,5 C 98 % 1011,9 hPa 0,0 l/m 0 min 2 min 0 W/m 19,3 km/h (3 Bft) 93,62 %
21.12.2020 17:22 7,6 C 6,7 C 5,5 C 98 % 1011,9 hPa 0,2 l/m 0 min 2 min 0 W/m 3,2 km/h (1 Bft) 93,48 %
21.12.2020 17:24 7,6 C 6,7 C 5,5 C 98 % 1011,9 hPa 0,0 l/m 0 min 2 min 0 W/m 16,1 km/h (3 Bft) 93,62 %
21.12.2020 17:26 7,6 C 6,7 C 5,5 C 98 % 1011,8 hPa 0,0 l/m 0 min 2 min 0 W/m 6,4 km/h (2 Bft) 95,74 %
21.12.2020 17:28 7,5 C 6,7 C 5,5 C 98 % 1011,9 hPa 0,0 l/m 0 min 2 min 0 W/m 0,0 km/h (0 Bft) 95,74 %
21.12.2020 17:30 7,6 C 6,7 C 5,5 C 98 % 1011,8 hPa 0,0 l/m 0 min 2 min 0 W/m 12,9 km/h (3 Bft) 97,87 %
21.12.2020 17:32 7,6 C 6,7 C 5,5 C 98 % 1011,8 hPa 0,0 l/m 0 min 2 min 0 W/m 3,2 km/h (1 Bft) 95,74 %
21.12.2020 17:34 7,6 C 6,7 C 5,5 C 98 % 1011,8 hPa 0,2 l/m 0 min 2 min 0 W/m 0,0 km/h (0 Bft) 95,65 %
21.12.2020 17:36 7,6 C 6,7 C 5,5 C 98 % 1011,8 hPa 0,0 l/m 0 min 2 min 0 W/m 12,9 km/h (3 Bft) 95,74 %
21.12.2020 17:38 7,6 C 6,7 C 5,5 C 98 % 1011,8 hPa 0,0 l/m 0 min 2 min 0 W/m 9,7 km/h (2 Bft) 95,74 %
21.12.2020 17:40 7,6 C 6,7 C 5,5 C 98 % 1011,8 hPa 0,2 l/m 0 min 2 min 0 W/m 12,9 km/h (3 Bft) 95,74 %
21.12.2020 17:42 7,6 C 6,7 C 5,5 C 98 % 1011,8 hPa 0,0 l/m 0 min 2 min 0 W/m 19,3 km/h (3 Bft) 93,62 %
21.12.2020 17:44 7,6 C 6,7 C 5,5 C 98 % 1011,7 hPa 0,2 l/m 0 min 2 min 0 W/m 16,1 km/h (3 Bft) 95,74 %
21.12.2020 17:46 7,6 C 6,7 C 5,5 C 98 % 1011,6 hPa 0,0 l/m 0 min 2 min 0 W/m 25,7 km/h (4 Bft) 95,65 %
21.12.2020 17:48 7,6 C 6,7 C 5,5 C 98 % 1011,6 hPa 0,2 l/m 0 min 2 min 0 W/m 0,0 km/h (0 Bft) 94,83 %
21.12.2020 17:50 7,6 C 6,7 C 5,5 C 98 % 1011,5 hPa 0,0 l/m 0 min 2 min 0 W/m 6,4 km/h (2 Bft) 95,74 %
21.12.2020 17:52 7,6 C 6,7 C 5,5 C 98 % 1011,4 hPa 0,0 l/m 0 min 2 min 0 W/m 16,1 km/h (3 Bft) 95,74 %
21.12.2020 17:54 7,6 C 6,7 C 5,5 C 98 % 1011,2 hPa 0,0 l/m 0 min 2 min 0 W/m 3,2 km/h (1 Bft) 95,74 %
21.12.2020 17:56 7,6 C 6,7 C 5,5 C 98 % 1011,0 hPa 0,0 l/m 0 min 2 min 0 W/m 3,2 km/h (1 Bft) 97,83 %
21.12.2020 17:58 7,6 C 6,7 C 5,5 C 98 % 1010,8 hPa 0,2 l/m 0 min 2 min 0 W/m 0,0 km/h (0 Bft) 97,87 %
21.12.2020 18:00 7,6 C 6,7 C 5,5 C 98 % 1010,8 hPa 0,0 l/m 0 min 2 min 0 W/m 6,4 km/h (2 Bft) 97,14 %
21.12.2020 18:02 7,6 C 6,7 C 5,5 C 98 % 1011,0 hPa 0,2 l/m 0 min 2 min 0 W/m 16,1 km/h (3 Bft) 97,92 %
21.12.2020 18:04 7,6 C 6,7 C 5,5 C 98 % 1011,0 hPa 0,0 l/m 0 min 2 min 0 W/m 29,0 km/h (5 Bft) 100,00 %
21.12.2020 18:08 7,6 C 6,7 C 5,5 C 98 % 1010,9 hPa 0,2 l/m 0 min 4 min 0 W/m 22,5 km/h (4 Bft) 98,92 %
21.12.2020 18:10 7,6 C 6,7 C 5,5 C 98 % 1011,0 hPa 0,0 l/m 0 min 2 min 0 W/m 0,0 km/h (0 Bft) 100,00 %
21.12.2020 18:12 7,6 C 6,7 C 5,5 C 98 % 1011,0 hPa 0,0 l/m 0 min 2 min 0 W/m 0,0 km/h (0 Bft) 97,87 %
21.12.2020 18:14 7,6 C 6,7 C 5,5 C 98 % 1010,9 hPa 0,0 l/m 0 min 2 min 0 W/m 25,7 km/h (4 Bft) 100,00 %
21.12.2020 18:16 7,6 C 6,7 C 5,5 C 99 % 1011,0 hPa 0,2 l/m 0 min 2 min 0 W/m 19,3 km/h (3 Bft) 97,87 %
21.12.2020 18:18 7,6 C 6,7 C 5,5 C 99 % 1011,0 hPa 0,0 l/m 0 min 0 min 0 W/m 19,3 km/h (3 Bft) 100,00 %
21.12.2020 18:20 7,6 C 6,7 C 5,5 C 99 % 1011,0 hPa 0,0 l/m 0 min 2 min 0 W/m 19,3 km/h (3 Bft) 100,00 %
21.12.2020 18:22 7,6 C 6,7 C 5,5 C 99 % 1011,0 hPa 0,0 l/m 0 min 0 min 0 W/m 19,3 km/h (3 Bft) 95,74 %
21.12.2020 18:24 7,6 C 6,7 C 5,5 C 99 % 1011,0 hPa 0,0 l/m 0 min 0 min 0 W/m 0,0 km/h (0 Bft) 100,00 %
21.12.2020 18:26 7,6 C 6,7 C 5,5 C 99 % 1011,0 hPa 0,0 l/m 0 min 0 min 0 W/m 3,2 km/h (1 Bft) 100,00 %
21.12.2020 18:28 7,6 C 6,7 C 6,1 C 99 % 1011,0 hPa 0,0 l/m 0 min 0 min 0 W/m 12,9 km/h (3 Bft) 100,00 %
21.12.2020 18:30 7,6 C 6,7 C 6,1 C 99 % 1010,9 hPa 0,0 l/m 0 min 0 min 0 W/m 19,3 km/h (3 Bft) 97,87 %
21.12.2020 18:32 7,6 C 6,7 C 6,1 C 99 % 1010,9 hPa 0,0 l/m 0 min 2 min 0 W/m 25,7 km/h (4 Bft) 95,74 %
21.12.2020 18:34 7,6 C 6,7 C 6,1 C 99 % 1010,8 hPa 0,0 l/m 0 min 2 min 0 W/m 16,1 km/h (3 Bft) 100,00 %
21.12.2020 18:36 7,6 C 6,7 C 6,1 C 99 % 1010,8 hPa 0,0 l/m 0 min 0 min 0 W/m 19,3 km/h (3 Bft) 100,00 %
21.12.2020 18:38 7,6 C 6,7 C 6,1 C 99 % 1010,8 hPa 0,2 l/m 0 min 0 min 0 W/m 16,1 km/h (3 Bft) 100,00 %
21.12.2020 18:40 7,7 C 6,7 C 6,1 C 99 % 1010,8 hPa 0,0 l/m 0 min 2 min 0 W/m 19,3 km/h (3 Bft) 97,37 %
21.12.2020 18:42 7,7 C 6,7 C 6,1 C 99 % 1010,9 hPa 0,0 l/m 0 min 2 min 0 W/m 0,0 km/h (0 Bft) 97,87 %
21.12.2020 18:44 7,7 C 6,7 C 6,1 C 99 % 1010,8 hPa 0,0 l/m 0 min 0 min 0 W/m 19,3 km/h (3 Bft) 100,00 %
21.12.2020 18:46 7,7 C 6,7 C 6,1 C 99 % 1010,8 hPa 0,0 l/m 0 min 0 min 0 W/m 16,1 km/h (3 Bft) 97,87 %
21.12.2020 18:48 7,7 C 6,7 C 6,1 C 99 % 1010,8 hPa 0,0 l/m 0 min 0 min 0 W/m 6,4 km/h (2 Bft) 97,87 %
21.12.2020 18:50 7,7 C 6,7 C 6,1 C 99 % 1010,8 hPa 0,0 l/m 0 min 0 min 0 W/m 6,4 km/h (2 Bft) 93,62 %
21.12.2020 18:52 7,7 C 6,7 C 6,1 C 99 % 1010,7 hPa 0,0 l/m 0 min 2 min 0 W/m 0,0 km/h (0 Bft) 97,87 %
21.12.2020 18:54 7,7 C 6,7 C 6,1 C 99 % 1010,7 hPa 0,0 l/m 0 min 0 min 0 W/m 6,4 km/h (2 Bft) 97,87 %
21.12.2020 18:56 7,7 C 6,7 C 6,1 C 99 % 1010,7 hPa 0,0 l/m 0 min 0 min 0 W/m 12,9 km/h (3 Bft) 97,83 %
21.12.2020 18:58 7,7 C 6,7 C 6,1 C 99 % 1010,5 hPa 0,0 l/m 0 min 0 min 0 W/m 19,3 km/h (3 Bft) 95,74 %
21.12.2020 19:00 7,8 C 6,7 C 6,1 C 99 % 1010,5 hPa 0,0 l/m 0 min 0 min 0 W/m 0,0 km/h (0 Bft) 97,87 %
21.12.2020 19:02 7,8 C 6,7 C 6,1 C 99 % 1010,4 hPa 0,2 l/m 0 min 0 min 0 W/m 0,0 km/h (0 Bft) 95,74 %
21.12.2020 19:04 7,8 C 6,7 C 6,1 C 99 % 1010,5 hPa 0,0 l/m 0 min 0 min 0 W/m 0,0 km/h (0 Bft) 97,87 %
21.12.2020 19:06 7,8 C 6,7 C 6,1 C 99 % 1010,5 hPa 0,0 l/m 0 min 0 min 0 W/m 3,2 km/h (1 Bft) 97,83 %
21.12.2020 19:08 7,8 C 6,7 C 6,1 C 99 % 1010,5 hPa 0,0 l/m 0 min 0 min 0 W/m 16,1 km/h (3 Bft) 97,87 %
21.12.2020 19:10 7,8 C 6,7 C 6,1 C 99 % 1010,6 hPa 0,0 l/m 0 min 0 min 0 W/m 19,3 km/h (3 Bft) 97,87 %
21.12.2020 19:12 7,8 C 6,7 C 6,1 C 99 % 1010,6 hPa 0,0 l/m 0 min 0 min 0 W/m 0,0 km/h (0 Bft) 97,87 %
21.12.2020 19:14 7,8 C 6,7 C 6,1 C 99 % 1010,6 hPa 0,0 l/m 0 min 0 min 0 W/m 0,0 km/h (0 Bft) 100,00 %
21.12.2020 19:16 7,8 C 6,7 C 6,1 C 99 % 1010,5 hPa 0,0 l/m 0 min 0 min 0 W/m 0,0 km/h (0 Bft) 95,74 %
21.12.2020 19:18 7,8 C 6,7 C 6,1 C 99 % 1010,5 hPa 0,0 l/m 0 min 0 min 0 W/m 9,7 km/h (2 Bft) 97,83 %
21.12.2020 19:20 7,8 C 6,7 C 6,1 C 99 % 1010,4 hPa 0,0 l/m 0 min 0 min 0 W/m 16,1 km/h (3 Bft) 95,74 %
21.12.2020 19:22 7,8 C 6,7 C 6,1 C 99 % 1010,4 hPa 0,0 l/m 0 min 0 min 0 W/m 12,9 km/h (3 Bft) 95,74 %
21.12.2020 19:24 7,8 C 6,7 C 6,1 C 99 % 1010,3 hPa 0,0 l/m 0 min 0 min 0 W/m 6,4 km/h (2 Bft) 97,87 %
21.12.2020 19:26 7,8 C 6,7 C 6,1 C 99 % 1010,3 hPa 0,0 l/m 0 min 0 min 0 W/m 12,9 km/h (3 Bft) 97,87 %
21.12.2020 19:28 7,8 C 6,7 C 6,1 C 99 % 1010,4 hPa 0,0 l/m 0 min 0 min 0 W/m 3,2 km/h (1 Bft) 97,87 %
21.12.2020 19:30 7,8 C 7,2 C 6,1 C 99 % 1010,4 hPa 0,0 l/m 0 min 0 min 0 W/m 3,2 km/h (1 Bft) 97,83 %
21.12.2020 19:32 7,8 C 7,2 C 6,1 C 99 % 1010,5 hPa 0,0 l/m 0 min 0 min 0 W/m 16,1 km/h (3 Bft) 97,87 %
21.12.2020 19:34 7,8 C 7,2 C 6,1 C 99 % 1010,5 hPa 0,0 l/m 0 min 0 min 0 W/m 3,2 km/h (1 Bft) 97,87 %
21.12.2020 19:36 7,8 C 7,2 C 6,1 C 99 % 1010,5 hPa 0,0 l/m 0 min 0 min 0 W/m 3,2 km/h (1 Bft) 97,87 %
21.12.2020 19:38 7,8 C 7,2 C 6,1 C 99 % 1010,5 hPa 0,0 l/m 0 min 0 min 0 W/m 0,0 km/h (0 Bft) 100,00 %
21.12.2020 19:40 7,8 C 7,2 C 6,1 C 99 % 1010,5 hPa 0,0 l/m 0 min 0 min 0 W/m 0,0 km/h (0 Bft) 100,00 %
21.12.2020 19:42 7,9 C 7,2 C 6,1 C 99 % 1010,4 hPa 0,0 l/m 0 min 0 min 0 W/m 3,2 km/h (1 Bft) 97,83 %
21.12.2020 19:44 7,8 C 7,2 C 6,1 C 99 % 1010,4 hPa 0,0 l/m 0 min 0 min 0 W/m 6,4 km/h (2 Bft) 100,00 %
21.12.2020 19:46 7,9 C 7,2 C 6,1 C 99 % 1010,4 hPa 0,0 l/m 0 min 2 min 0 W/m 0,0 km/h (0 Bft) 97,87 %
21.12.2020 19:48 7,9 C 7,2 C 6,1 C 99 % 1010,4 hPa 0,0 l/m 0 min 2 min 0 W/m 6,4 km/h (2 Bft) 100,00 %
21.12.2020 19:50 7,9 C 7,2 C 6,1 C 99 % 1010,3 hPa 0,2 l/m 0 min 0 min 0 W/m 0,0 km/h (0 Bft) 100,00 %
21.12.2020 19:52 7,9 C 7,2 C 6,1 C 99 % 1010,3 hPa 0,0 l/m 0 min 0 min 0 W/m 0,0 km/h (0 Bft) 98,15 %
21.12.2020 19:54 7,9 C 7,2 C 6,1 C 99 % 1010,3 hPa 0,0 l/m 0 min 0 min 0 W/m 0,0 km/h (0 Bft) 97,83 %
21.12.2020 19:56 7,9 C 7,2 C 6,1 C 99 % 1010,4 hPa 0,0 l/m 0 min 0 min 0 W/m 3,2 km/h (1 Bft) 97,87 %
21.12.2020 19:58 7,9 C 7,2 C 6,1 C 99 % 1010,3 hPa 0,0 l/m 0 min 0 min 0 W/m 0,0 km/h (0 Bft) 97,87 %
21.12.2020 20:00 7,9 C 7,2 C 6,1 C 99 % 1010,3 hPa 0,0 l/m 0 min 0 min 0 W/m 12,9 km/h (3 Bft) 97,87 %
21.12.2020 20:02 7,9 C 7,2 C 6,1 C 99 % 1010,3 hPa 0,0 l/m 0 min 0 min 0 W/m 22,5 km/h (4 Bft) 95,74 %
21.12.2020 20:04 7,9 C 7,2 C 6,1 C 99 % 1010,3 hPa 0,0 l/m 0 min 0 min 0 W/m 6,4 km/h (2 Bft) 97,83 %
21.12.2020 20:06 7,9 C 7,2 C 6,1 C 99 % 1010,2 hPa 0,0 l/m 0 min 0 min 0 W/m 16,1 km/h (3 Bft) 97,87 %
21.12.2020 20:08 7,9 C 7,2 C 6,1 C 99 % 1010,2 hPa 0,0 l/m 0 min 0 min 0 W/m 19,3 km/h (3 Bft) 97,87 %
21.12.2020 20:10 7,9 C 7,2 C 6,1 C 99 % 1010,1 hPa 0,0 l/m 0 min 0 min 0 W/m 3,2 km/h (1 Bft) 95,74 %
21.12.2020 20:12 7,9 C 7,2 C 6,1 C 99 % 1010,2 hPa 0,0 l/m 0 min 0 min 0 W/m 6,4 km/h (2 Bft) 97,87 %
21.12.2020 20:14 7,9 C 7,2 C 6,1 C 99 % 1010,1 hPa 0,0 l/m 0 min 0 min 0 W/m 3,2 km/h (1 Bft) 97,87 %
21.12.2020 20:16 7,9 C 7,2 C 6,1 C 99 % 1010,1 hPa 0,0 l/m 0 min 0 min 0 W/m 6,4 km/h (2 Bft) 97,83 %
21.12.2020 20:18 7,9 C 7,2 C 6,1 C 99 % 1010,2 hPa 0,0 l/m 0 min 0 min 0 W/m 3,2 km/h (1 Bft) 97,87 %
21.12.2020 20:20 8,0 C 7,2 C 6,1 C 99 % 1010,2 hPa 0,0 l/m 0 min 0 min 0 W/m 0,0 km/h (0 Bft) 97,87 %
21.12.2020 20:22 8,0 C 7,2 C 6,1 C 99 % 1010,2 hPa 0,0 l/m 0 min 0 min 0 W/m 0,0 km/h (0 Bft) 97,87 %
21.12.2020 20:24 8,0 C 7,2 C 6,1 C 99 % 1010,1 hPa 0,0 l/m 0 min 0 min 0 W/m 0,0 km/h (0 Bft) 97,87 %
21.12.2020 20:26 8,0 C 7,2 C 6,1 C 99 % 1010,2 hPa 0,0 l/m 0 min 0 min 0 W/m 0,0 km/h (0 Bft) 97,87 %
21.12.2020 20:28 8,0 C 7,2 C 6,1 C 100 % 1010,1 hPa 0,0 l/m 0 min 0 min 0 W/m 6,4 km/h (2 Bft) 97,83 %
21.12.2020 20:30 8,0 C 7,2 C 6,1 C 100 % 1010,1 hPa 0,0 l/m 0 min 0 min 0 W/m 0,0 km/h (0 Bft) 95,74 %
21.12.2020 20:32 8,0 C 7,2 C 6,1 C 100 % 1010,1 hPa 0,0 l/m 0 min 0 min 0 W/m 0,0 km/h (0 Bft) 97,50 %
21.12.2020 20:34 8,0 C 7,2 C 6,1 C 100 % 1010,1 hPa 0,0 l/m 0 min 0 min 0 W/m 12,9 km/h (3 Bft) 97,87 %
21.12.2020 20:36 8,0 C 7,2 C 6,1 C 100 % 1010,1 hPa 0,0 l/m 0 min 2 min 0 W/m 0,0 km/h (0 Bft) 100,00 %
21.12.2020 20:38 8,0 C 7,2 C 6,1 C 100 % 1010,1 hPa 0,0 l/m 0 min 2 min 0 W/m 0,0 km/h (0 Bft) 93,62 %
21.12.2020 20:40 8,0 C 7,2 C 6,1 C 100 % 1010,1 hPa 0,0 l/m 0 min 0 min 0 W/m 0,0 km/h (0 Bft) 100,00 %
21.12.2020 20:42 8,0 C 7,2 C 6,1 C 100 % 1010,1 hPa 0,0 l/m 0 min 2 min 0 W/m 3,2 km/h (1 Bft) 98,00 %
21.12.2020 20:44 8,0 C 7,2 C 6,1 C 100 % 1010,1 hPa 0,0 l/m 0 min 2 min 0 W/m 0,0 km/h (0 Bft) 97,87 %
21.12.2020 20:46 8,0 C 7,2 C 6,1 C 100 % 1010,1 hPa 0,0 l/m 0 min 2 min 0 W/m 3,2 km/h (1 Bft) 100,00 %
21.12.2020 20:48 8,0 C 7,2 C 6,1 C 100 % 1010,1 hPa 0,0 l/m 0 min 2 min 0 W/m 0,0 km/h (0 Bft) 100,00 %
21.12.2020 20:50 8,0 C 7,2 C 6,1 C 100 % 1010,0 hPa 0,0 l/m 0 min 2 min 0 W/m 0,0 km/h (0 Bft) 100,00 %
21.12.2020 20:52 8,0 C 7,2 C 6,1 C 100 % 1009,9 hPa 0,0 l/m 0 min 0 min 0 W/m 0,0 km/h (0 Bft) 100,00 %
21.12.2020 20:54 8,0 C 7,2 C 6,1 C 100 % 1009,9 hPa 0,0 l/m 0 min 0 min 0 W/m 0,0 km/h (0 Bft) 100,00 %
21.12.2020 20:56 8,0 C 7,2 C 6,6 C 100 % 1010,0 hPa 0,0 l/m 0 min 0 min 0 W/m 0,0 km/h (0 Bft) 100,00 %
21.12.2020 20:58 8,0 C 7,2 C 6,6 C 100 % 1010,0 hPa 0,0 l/m 0 min 0 min 0 W/m 0,0 km/h (0 Bft) 100,00 %
21.12.2020 21:00 8,1 C 7,2 C 6,6 C 100 % 1010,0 hPa 0,0 l/m 0 min 0 min 0 W/m 0,0 km/h (0 Bft) 97,87 %
21.12.2020 21:02 8,1 C 7,2 C 6,6 C 100 % 1010,0 hPa 0,0 l/m 0 min 0 min 0 W/m 0,0 km/h (0 Bft) 100,00 %
21.12.2020 21:04 8,1 C 7,2 C 6,6 C 100 % 1010,0 hPa 0,0 l/m 0 min 0 min 0 W/m 0,0 km/h (0 Bft) 98,00 %
21.12.2020 21:06 8,1 C 7,2 C 6,6 C 100 % 1009,9 hPa 0,0 l/m 0 min 0 min 0 W/m 0,0 km/h (0 Bft) 100,00 %
21.12.2020 21:08 8,1 C 7,2 C 6,6 C 100 % 1009,9 hPa 0,0 l/m 0 min 0 min 0 W/m 0,0 km/h (0 Bft) 98,04 %
21.12.2020 21:10 8,1 C 7,2 C 6,6 C 99 % 1009,9 hPa 0,0 l/m 0 min 0 min 0 W/m 3,2 km/h (1 Bft) 100,00 %
21.12.2020 21:12 8,1 C 7,2 C 6,6 C 100 % 1009,9 hPa 0,2 l/m 0 min 2 min 0 W/m 0,0 km/h (0 Bft) 100,00 %
21.12.2020 21:14 8,1 C 7,2 C 6,6 C 99 % 1009,8 hPa 0,0 l/m 0 min 2 min 0 W/m 0,0 km/h (0 Bft) 100,00 %
21.12.2020 21:16 8,1 C 7,2 C 6,6 C 99 % 1009,8 hPa 0,2 l/m 0 min 2 min 0 W/m 0,0 km/h (0 Bft) 100,00 %
21.12.2020 21:18 8,1 C 7,2 C 6,6 C 100 % 1009,7 hPa 0,0 l/m 0 min 2 min 0 W/m 0,0 km/h (0 Bft) 100,00 %
21.12.2020 21:20 8,1 C 7,2 C 6,6 C 100 % 1009,7 hPa 0,0 l/m 0 min 2 min 0 W/m 0,0 km/h (0 Bft) 100,00 %
21.12.2020 21:22 8,1 C 7,2 C 6,6 C 100 % 1009,7 hPa 0,0 l/m 0 min 0 min 0 W/m 0,0 km/h (0 Bft) 100,00 %
21.12.2020 21:24 8,1 C 7,2 C 6,6 C 100 % 1009,7 hPa 0,0 l/m 0 min 2 min 0 W/m 0,0 km/h (0 Bft) 100,00 %
21.12.2020 21:26 8,2 C 7,2 C 6,6 C 100 % 1009,8 hPa 0,4 l/m 0 min 2 min 0 W/m 0,0 km/h (0 Bft) 100,00 %
21.12.2020 21:28 8,2 C 7,2 C 6,6 C 100 % 1009,6 hPa 0,2 l/m 0 min 2 min 0 W/m 0,0 km/h (0 Bft) 100,00 %
21.12.2020 21:30 8,2 C 7,2 C 6,6 C 100 % 1009,6 hPa 0,2 l/m 0 min 2 min 0 W/m 0,0 km/h (0 Bft) 100,00 %
21.12.2020 21:32 8,2 C 7,2 C 6,6 C 100 % 1009,7 hPa 0,0 l/m 0 min 2 min 0 W/m 0,0 km/h (0 Bft) 100,00 %
21.12.2020 21:34 8,3 C 7,2 C 6,6 C 100 % 1009,6 hPa 0,0 l/m 0 min 0 min 0 W/m 0,0 km/h (0 Bft) 95,74 %
21.12.2020 21:36 8,3 C 7,8 C 6,6 C 100 % 1009,5 hPa 0,0 l/m 0 min 0 min 0 W/m 6,4 km/h (2 Bft) 97,62 %
21.12.2020 21:38 8,3 C 7,8 C 6,6 C 100 % 1009,5 hPa 0,0 l/m 0 min 0 min 0 W/m 3,2 km/h (1 Bft) 95,92 %
21.12.2020 21:40 8,3 C 7,8 C 6,6 C 100 % 1009,5 hPa 0,0 l/m 0 min 0 min 0 W/m 3,2 km/h (1 Bft) 95,74 %
21.12.2020 21:42 8,4 C 7,8 C 6,6 C 100 % 1009,6 hPa 0,0 l/m 0 min 0 min 0 W/m 9,7 km/h (2 Bft) 97,87 %
21.12.2020 21:44 8,4 C 7,8 C 6,6 C 100 % 1009,7 hPa 0,0 l/m 0 min 0 min 0 W/m 3,2 km/h (1 Bft) 97,96 %
21.12.2020 21:46 8,4 C 7,8 C 6,6 C 100 % 1009,6 hPa 0,0 l/m 0 min 0 min 0 W/m 0,0 km/h (0 Bft) 95,24 %
21.12.2020 21:48 8,4 C 7,8 C 6,6 C 100 % 1009,7 hPa 0,0 l/m 0 min 0 min 0 W/m 0,0 km/h (0 Bft) 98,00 %
21.12.2020 21:50 8,4 C 7,8 C 6,6 C 100 % 1009,7 hPa 0,0 l/m 0 min 0 min 0 W/m 6,4 km/h (2 Bft) 97,92 %
21.12.2020 21:52 8,4 C 7,8 C 6,6 C 100 % 1009,6 hPa 0,0 l/m 0 min 0 min 0 W/m 0,0 km/h (0 Bft) 95,74 %
21.12.2020 21:54 8,4 C 7,8 C 6,6 C 100 % 1009,6 hPa 0,0 l/m 0 min 0 min 0 W/m 0,0 km/h (0 Bft) 97,87 %
21.12.2020 21:56 8,4 C 7,8 C 6,6 C 100 % 1009,6 hPa 0,0 l/m 0 min 0 min 0 W/m 6,4 km/h (2 Bft) 95,12 %
21.12.2020 21:58 8,5 C 7,8 C 6,6 C 100 % 1009,6 hPa 0,0 l/m 0 min 0 min 0 W/m 0,0 km/h (0 Bft) 96,00 %
21.12.2020 22:00 8,5 C 7,8 C 6,6 C 100 % 1009,6 hPa 0,0 l/m 0 min 0 min 0 W/m 0,0 km/h (0 Bft) 95,92 %
21.12.2020 22:02 8,5 C 7,8 C 6,6 C 100 % 1009,6 hPa 0,0 l/m 0 min 0 min 0 W/m 0,0 km/h (0 Bft) 98,00 %
21.12.2020 22:04 8,5 C 7,8 C 6,6 C 100 % 1009,6 hPa 0,0 l/m 0 min 0 min 0 W/m 0,0 km/h (0 Bft) 97,37 %
21.12.2020 22:06 8,5 C 7,8 C 6,6 C 100 % 1009,5 hPa 0,0 l/m 0 min 0 min 0 W/m 0,0 km/h (0 Bft) 96,00 %
21.12.2020 22:08 8,5 C 7,8 C 7,2 C 100 % 1009,4 hPa 0,0 l/m 0 min 2 min 0 W/m 0,0 km/h (0 Bft) 97,87 %
21.12.2020 22:10 8,5 C 7,8 C 7,2 C 100 % 1009,4 hPa 0,0 l/m 0 min 0 min 0 W/m 0,0 km/h (0 Bft) 97,83 %
21.12.2020 22:12 8,5 C 7,8 C 7,2 C 100 % 1009,4 hPa 0,0 l/m 0 min 0 min 0 W/m 0,0 km/h (0 Bft) 94,34 %
21.12.2020 22:14 8,6 C 7,8 C 7,2 C 100 % 1009,4 hPa 0,0 l/m 0 min 0 min 0 W/m 0,0 km/h (0 Bft) 94,74 %
21.12.2020 22:16 8,6 C 7,8 C 7,2 C 100 % 1009,5 hPa 0,0 l/m 0 min 0 min 0 W/m 0,0 km/h (0 Bft) 98,00 %
21.12.2020 22:18 8,6 C 8,3 C 7,2 C 100 % 1009,5 hPa 0,0 l/m 0 min 0 min 0 W/m 0,0 km/h (0 Bft) 97,87 %
21.12.2020 22:20 8,8 C 8,3 C 7,2 C 100 % 1009,4 hPa 0,0 l/m 0 min 0 min 0 W/m 3,2 km/h (1 Bft) 94,34 %
21.12.2020 22:22 8,8 C 8,3 C 7,2 C 100 % 1009,4 hPa 0,0 l/m 0 min 0 min 0 W/m 0,0 km/h (0 Bft) 97,37 %
21.12.2020 22:24 8,8 C 8,3 C 7,2 C 100 % 1009,4 hPa 0,0 l/m 0 min 0 min 0 W/m 0,0 km/h (0 Bft) 100,00 %
21.12.2020 22:26 8,9 C 8,3 C 7,2 C 100 % 1009,3 hPa 0,0 l/m 0 min 0 min 0 W/m 0,0 km/h (0 Bft) 100,00 %
21.12.2020 22:28 8,9 C 8,3 C 7,2 C 100 % 1009,3 hPa 0,0 l/m 0 min 0 min 0 W/m 0,0 km/h (0 Bft) 98,11 %
21.12.2020 22:30 9,0 C 8,3 C 7,2 C 100 % 1009,2 hPa 0,0 l/m 0 min 0 min 0 W/m 0,0 km/h (0 Bft) 100,00 %
21.12.2020 22:32 9,0 C 8,3 C 7,2 C 100 % 1009,3 hPa 0,0 l/m 0 min 0 min 0 W/m 0,0 km/h (0 Bft) 96,00 %
21.12.2020 22:34 9,0 C 8,3 C 7,2 C 100 % 1009,3 hPa 0,0 l/m 0 min 0 min 0 W/m 0,0 km/h (0 Bft) 97,83 %
21.12.2020 22:36 9,1 C 8,3 C 7,2 C 100 % 1009,2 hPa 0,0 l/m 0 min 0 min 0 W/m 0,0 km/h (0 Bft) 98,11 %
21.12.2020 22:38 9,1 C 8,3 C 7,7 C 100 % 1009,2 hPa 0,0 l/m 0 min 0 min 0 W/m 0,0 km/h (0 Bft) 97,37 %
21.12.2020 22:40 9,1 C 8,3 C 7,7 C 100 % 1009,3 hPa 0,0 l/m 0 min 0 min 0 W/m 0,0 km/h (0 Bft) 95,74 %
21.12.2020 22:42 9,2 C 8,3 C 7,7 C 100 % 1009,3 hPa 0,0 l/m 0 min 0 min 0 W/m 0,0 km/h (0 Bft) 97,87 %
21.12.2020 22:44 9,2 C 8,9 C 7,7 C 100 % 1009,3 hPa 0,0 l/m 0 min 0 min 0 W/m 3,2 km/h (1 Bft) 97,87 %
21.12.2020 22:46 9,3 C 8,9 C 7,7 C 100 % 1009,3 hPa 0,0 l/m 0 min 0 min 0 W/m 0,0 km/h (0 Bft) 97,87 %
21.12.2020 22:48 9,3 C 8,9 C 7,7 C 100 % 1009,3 hPa 0,0 l/m 0 min 0 min 0 W/m 0,0 km/h (0 Bft) 97,96 %
21.12.2020 22:50 9,3 C 8,9 C 7,7 C 100 % 1009,3 hPa 0,0 l/m 0 min 0 min 0 W/m 0,0 km/h (0 Bft) 97,87 %
21.12.2020 22:52 9,4 C 8,9 C 7,7 C 100 % 1009,4 hPa 0,0 l/m 0 min 0 min 0 W/m 0,0 km/h (0 Bft) 95,74 %
21.12.2020 22:54 9,4 C 8,9 C 7,7 C 100 % 1009,3 hPa 0,0 l/m 0 min 0 min 0 W/m 0,0 km/h (0 Bft) 97,87 %
21.12.2020 22:56 9,5 C 8,9 C 7,7 C 100 % 1009,3 hPa 0,0 l/m 0 min 0 min 0 W/m 0,0 km/h (0 Bft) 97,87 %
21.12.2020 22:58 9,5 C 9,4 C 7,7 C 100 % 1009,3 hPa 0,0 l/m 0 min 0 min 0 W/m 0,0 km/h (0 Bft) 97,96 %
21.12.2020 23:00 9,6 C 9,4 C 8,3 C 100 % 1009,3 hPa 0,0 l/m 0 min 0 min 0 W/m 29,0 km/h (5 Bft) 95,24 %
21.12.2020 23:02 9,8 C 9,4 C 8,3 C 100 % 1009,2 hPa 0,0 l/m 0 min 0 min 0 W/m 19,3 km/h (3 Bft) 96,00 %
21.12.2020 23:04 9,9 C 9,4 C 8,3 C 100 % 1009,2 hPa 0,0 l/m 0 min 0 min 0 W/m 12,9 km/h (3 Bft) 97,87 %
21.12.2020 23:06 10,0 C 9,4 C 8,3 C 100 % 1009,2 hPa 0,0 l/m 0 min 0 min 0 W/m 25,7 km/h (4 Bft) 96,00 %
21.12.2020 23:08 10,0 C 9,4 C 8,3 C 100 % 1009,2 hPa 0,0 l/m 0 min 0 min 0 W/m 0,0 km/h (0 Bft) 97,87 %
21.12.2020 23:10 10,1 C 9,4 C 8,3 C 100 % 1009,1 hPa 0,0 l/m 0 min 0 min 0 W/m 0,0 km/h (0 Bft) 97,83 %
21.12.2020 23:12 10,1 C 9,4 C 8,3 C 100 % 1009,1 hPa 0,0 l/m 0 min 0 min 0 W/m 0,0 km/h (0 Bft) 97,96 %
21.12.2020 23:14 10,1 C 9,4 C 8,3 C 100 % 1009,1 hPa 0,0 l/m 0 min 0 min 0 W/m 0,0 km/h (0 Bft) 97,14 %
21.12.2020 23:16 10,2 C 10,0 C 8,3 C 100 % 1009,1 hPa 0,0 l/m 0 min 0 min 0 W/m 0,0 km/h (0 Bft) 96,30 %
21.12.2020 23:18 10,3 C 10,0 C 8,3 C 100 % 1009,2 hPa 0,0 l/m 0 min 0 min 0 W/m 0,0 km/h (0 Bft) 100,00 %
21.12.2020 23:20 10,3 C 10,0 C 8,8 C 100 % 1009,2 hPa 0,0 l/m 0 min 0 min 0 W/m 22,5 km/h (4 Bft) 100,00 %
21.12.2020 23:22 10,4 C 10,0 C 8,8 C 100 % 1009,2 hPa 0,0 l/m 0 min 0 min 0 W/m 3,2 km/h (1 Bft) 97,83 %
21.12.2020 23:24 10,4 C 10,0 C 8,8 C 100 % 1009,2 hPa 0,0 l/m 0 min 0 min 0 W/m 19,3 km/h (3 Bft) 100,00 %
21.12.2020 23:26 10,5 C 10,0 C 8,8 C 100 % 1009,1 hPa 0,0 l/m 0 min 0 min 0 W/m 25,7 km/h (4 Bft) 100,00 %
21.12.2020 23:28 10,5 C 10,0 C 8,8 C 100 % 1009,2 hPa 0,0 l/m 0 min 0 min 0 W/m 12,9 km/h (3 Bft) 100,00 %
21.12.2020 23:30 10,6 C 10,0 C 8,8 C 100 % 1009,2 hPa 0,0 l/m 0 min 0 min 0 W/m 0,0 km/h (0 Bft) 100,00 %
21.12.2020 23:32 10,6 C 10,0 C 8,8 C 100 % 1009,2 hPa 0,0 l/m 0 min 0 min 0 W/m 19,3 km/h (3 Bft) 97,50 %
21.12.2020 23:34 10,6 C 10,0 C 8,8 C 100 % 1009,2 hPa 0,0 l/m 0 min 0 min 0 W/m 0,0 km/h (0 Bft) 100,00 %
21.12.2020 23:36 10,7 C 10,0 C 8,8 C 100 % 1009,2 hPa 0,0 l/m 0 min 0 min 0 W/m 25,7 km/h (4 Bft) 100,00 %
21.12.2020 23:38 10,7 C 10,0 C 8,8 C 100 % 1009,2 hPa 0,0 l/m 0 min 0 min 0 W/m 29,0 km/h (5 Bft) 100,00 %
21.12.2020 23:40 10,8 C 10,6 C 8,8 C 100 % 1009,2 hPa 0,0 l/m 0 min 0 min 0 W/m 16,1 km/h (3 Bft) 97,87 %
21.12.2020 23:42 10,8 C 10,6 C 8,8 C 100 % 1009,1 hPa 0,0 l/m 0 min 0 min 0 W/m 29,0 km/h (5 Bft) 100,00 %
21.12.2020 23:44 10,8 C 10,6 C 8,8 C 100 % 1009,2 hPa 0,0 l/m 0 min 0 min 0 W/m 22,5 km/h (4 Bft) 100,00 %
21.12.2020 23:46 10,9 C 10,6 C 9,4 C 100 % 1009,1 hPa 0,0 l/m 0 min 0 min 0 W/m 22,5 km/h (4 Bft) 100,00 %
21.12.2020 23:48 10,9 C 10,6 C 8,8 C 100 % 1009,0 hPa 0,0 l/m 0 min 0 min 0 W/m 25,7 km/h (4 Bft) 100,00 %
21.12.2020 23:50 11,0 C 10,6 C 9,4 C 100 % 1009,0 hPa 0,0 l/m 0 min 0 min 0 W/m 25,7 km/h (4 Bft) 100,00 %
21.12.2020 23:52 11,0 C 10,6 C 9,4 C 100 % 1009,0 hPa 0,0 l/m 0 min 0 min 0 W/m 38,6 km/h (5 Bft) 98,15 %
21.12.2020 23:54 11,0 C 10,6 C 9,4 C 100 % 1009,0 hPa 0,0 l/m 0 min 0 min 0 W/m 25,7 km/h (4 Bft) 97,87 %
21.12.2020 23:56 11,1 C 10,6 C 9,4 C 100 % 1009,1 hPa 0,0 l/m 0 min 0 min 0 W/m 29,0 km/h (5 Bft) 56,52 %
21.12.2020 23:58 11,1 C 11,1 C 9,4 C 100 % 1009,1 hPa 0,0 l/m 0 min 0 min 0 W/m 41,8 km/h (6 Bft) 100,00 %
_ Min-Zeit 05:42 04:50 05:12 00:00 23:48 - - - - 00:00 09:04
Minimum _ 4,3 C 3,9 C 2,2 C 93 % 1009,0 hPa - - - - 0,0 km/h (0 Bft) 53,33 %
_ Max-Zeit 23:56 23:58 23:46 20:28 00:30 21:26 00:00 12:08 11:34 23:58 00:00
Maximum _ 11,1 C 11,1 C 9,4 C 100 % 1021,1 hPa 0,4 l/m 0 min 4 min 91 W/m 41,8 km/h
S (6 Bft)
100,00 %
Durchschnitt _ 6,9 C 6,2 C 4,8 C 96 % 1016,0 hPa #6,2 l/m #0 min. #6:00 h 28 W/m 4,6 km/h (1 Bft) 97,38 %
© 2020 W. Hausmann